<?xml version="1.0" encoding="UTF-8" standalone="no" ?>
<gpx xmlns="http://www.topografix.com/GPX/1/1" xmlns:xsi="http://www.w3.org/2001/XMLSchema-instance" xsi:schemaLocation="http://www.topografix.com/GPX/1/1 http://www.topografix.com/GPX/1/1/gpx.xsd" version="1.1" creator="VisuGPX - https://www.visugpx.com">
  <metadata>
    <name>Samance,Roc des Tours.</name>
  </metadata>
  <trk>
    <name><![CDATA[Samance,Roc des Tours._1]]></name>
    <trkseg>
      <trkpt lat="45.97617" lon="6.45603">
        <ele>1368.9</ele>
        <time>2019-06-18T07:17:02Z</time>
      </trkpt>
      <trkpt lat="45.97618" lon="6.45597">
        <ele>1365.8</ele>
        <time>2019-06-18T07:17:05Z</time>
      </trkpt>
      <trkpt lat="45.97616" lon="6.45589">
        <ele>1361.9</ele>
        <time>2019-06-18T07:17:16Z</time>
      </trkpt>
      <trkpt lat="45.97613" lon="6.45583">
        <ele>1367.5</ele>
        <time>2019-06-18T07:17:41Z</time>
      </trkpt>
      <trkpt lat="45.97613" lon="6.45573">
        <ele>1367.6</ele>
        <time>2019-06-18T07:18:58Z</time>
      </trkpt>
      <trkpt lat="45.97612" lon="6.45567">
        <ele>1367.5</ele>
        <time>2019-06-18T07:19:04Z</time>
      </trkpt>
      <trkpt lat="45.97613" lon="6.4556">
        <ele>1367.2</ele>
        <time>2019-06-18T07:19:42Z</time>
      </trkpt>
      <trkpt lat="45.97611" lon="6.45554">
        <ele>1368.1</ele>
        <time>2019-06-18T07:19:59Z</time>
      </trkpt>
      <trkpt lat="45.97613" lon="6.45547">
        <ele>1368.5</ele>
        <time>2019-06-18T07:20:10Z</time>
      </trkpt>
      <trkpt lat="45.97617" lon="6.45546">
        <ele>1368.9</ele>
        <time>2019-06-18T07:20:38Z</time>
      </trkpt>
      <trkpt lat="45.97621" lon="6.4555">
        <ele>1368.9</ele>
        <time>2019-06-18T07:20:57Z</time>
      </trkpt>
      <trkpt lat="45.97619" lon="6.45544">
        <ele>1369.1</ele>
        <time>2019-06-18T07:21:28Z</time>
      </trkpt>
      <trkpt lat="45.97618" lon="6.45537">
        <ele>1368.8</ele>
        <time>2019-06-18T07:21:33Z</time>
      </trkpt>
      <trkpt lat="45.97618" lon="6.4553">
        <ele>1368.8</ele>
        <time>2019-06-18T07:21:38Z</time>
      </trkpt>
      <trkpt lat="45.97617" lon="6.45524">
        <ele>1369.2</ele>
        <time>2019-06-18T07:21:44Z</time>
      </trkpt>
      <trkpt lat="45.97615" lon="6.45518">
        <ele>1369.6</ele>
        <time>2019-06-18T07:21:50Z</time>
      </trkpt>
      <trkpt lat="45.97613" lon="6.45511">
        <ele>1369.9</ele>
        <time>2019-06-18T07:21:55Z</time>
      </trkpt>
      <trkpt lat="45.97611" lon="6.45505">
        <ele>1370.2</ele>
        <time>2019-06-18T07:22:00Z</time>
      </trkpt>
      <trkpt lat="45.97608" lon="6.45499">
        <ele>1370.7</ele>
        <time>2019-06-18T07:22:06Z</time>
      </trkpt>
      <trkpt lat="45.97606" lon="6.45493">
        <ele>1371.1</ele>
        <time>2019-06-18T07:22:11Z</time>
      </trkpt>
      <trkpt lat="45.97603" lon="6.45489">
        <ele>1371.4</ele>
        <time>2019-06-18T07:22:17Z</time>
      </trkpt>
      <trkpt lat="45.97601" lon="6.45482">
        <ele>1371.9</ele>
        <time>2019-06-18T07:22:26Z</time>
      </trkpt>
      <trkpt lat="45.97599" lon="6.45472">
        <ele>1372.1</ele>
        <time>2019-06-18T07:23:38Z</time>
      </trkpt>
      <trkpt lat="45.97599" lon="6.45465">
        <ele>1372.7</ele>
        <time>2019-06-18T07:23:46Z</time>
      </trkpt>
      <trkpt lat="45.97599" lon="6.45459">
        <ele>1373.2</ele>
        <time>2019-06-18T07:23:52Z</time>
      </trkpt>
      <trkpt lat="45.97599" lon="6.45452">
        <ele>1373.9</ele>
        <time>2019-06-18T07:23:57Z</time>
      </trkpt>
      <trkpt lat="45.976" lon="6.45445">
        <ele>1374.7</ele>
        <time>2019-06-18T07:24:04Z</time>
      </trkpt>
      <trkpt lat="45.97601" lon="6.45439">
        <ele>1375.2</ele>
        <time>2019-06-18T07:24:10Z</time>
      </trkpt>
      <trkpt lat="45.976" lon="6.45432">
        <ele>1375.7</ele>
        <time>2019-06-18T07:24:16Z</time>
      </trkpt>
      <trkpt lat="45.97599" lon="6.45424">
        <ele>1376.4</ele>
        <time>2019-06-18T07:24:22Z</time>
      </trkpt>
      <trkpt lat="45.97598" lon="6.45417">
        <ele>1377</ele>
        <time>2019-06-18T07:24:27Z</time>
      </trkpt>
      <trkpt lat="45.97595" lon="6.45412">
        <ele>1377.9</ele>
        <time>2019-06-18T07:24:35Z</time>
      </trkpt>
      <trkpt lat="45.97593" lon="6.45406">
        <ele>1378.7</ele>
        <time>2019-06-18T07:24:41Z</time>
      </trkpt>
      <trkpt lat="45.9759" lon="6.45401">
        <ele>1379.8</ele>
        <time>2019-06-18T07:24:48Z</time>
      </trkpt>
      <trkpt lat="45.97587" lon="6.45394">
        <ele>1380.9</ele>
        <time>2019-06-18T07:24:55Z</time>
      </trkpt>
      <trkpt lat="45.97584" lon="6.45389">
        <ele>1381.8</ele>
        <time>2019-06-18T07:25:00Z</time>
      </trkpt>
      <trkpt lat="45.97582" lon="6.45384">
        <ele>1382.7</ele>
        <time>2019-06-18T07:25:06Z</time>
      </trkpt>
      <trkpt lat="45.9758" lon="6.45377">
        <ele>1383.8</ele>
        <time>2019-06-18T07:25:12Z</time>
      </trkpt>
      <trkpt lat="45.97583" lon="6.45371">
        <ele>1384.4</ele>
        <time>2019-06-18T07:25:16Z</time>
      </trkpt>
      <trkpt lat="45.97584" lon="6.45364">
        <ele>1384.8</ele>
        <time>2019-06-18T07:25:20Z</time>
      </trkpt>
      <trkpt lat="45.97585" lon="6.45357">
        <ele>1385.3</ele>
        <time>2019-06-18T07:25:25Z</time>
      </trkpt>
      <trkpt lat="45.97587" lon="6.45351">
        <ele>1387.7</ele>
        <time>2019-06-18T07:25:46Z</time>
      </trkpt>
      <trkpt lat="45.97589" lon="6.45345">
        <ele>1388.6</ele>
        <time>2019-06-18T07:25:56Z</time>
      </trkpt>
      <trkpt lat="45.97587" lon="6.45338">
        <ele>1390.6</ele>
        <time>2019-06-18T07:26:16Z</time>
      </trkpt>
      <trkpt lat="45.97589" lon="6.45332">
        <ele>1390.9</ele>
        <time>2019-06-18T07:26:22Z</time>
      </trkpt>
      <trkpt lat="45.9759" lon="6.45325">
        <ele>1391</ele>
        <time>2019-06-18T07:26:26Z</time>
      </trkpt>
      <trkpt lat="45.9759" lon="6.45317">
        <ele>1391.2</ele>
        <time>2019-06-18T07:26:31Z</time>
      </trkpt>
      <trkpt lat="45.97588" lon="6.45312">
        <ele>1391.5</ele>
        <time>2019-06-18T07:26:37Z</time>
      </trkpt>
      <trkpt lat="45.97584" lon="6.45307">
        <ele>1391.9</ele>
        <time>2019-06-18T07:26:43Z</time>
      </trkpt>
      <trkpt lat="45.9758" lon="6.45303">
        <ele>1392.5</ele>
        <time>2019-06-18T07:26:48Z</time>
      </trkpt>
      <trkpt lat="45.97578" lon="6.45297">
        <ele>1393</ele>
        <time>2019-06-18T07:26:53Z</time>
      </trkpt>
      <trkpt lat="45.97577" lon="6.4529">
        <ele>1394</ele>
        <time>2019-06-18T07:27:01Z</time>
      </trkpt>
      <trkpt lat="45.97573" lon="6.45284">
        <ele>1394.8</ele>
        <time>2019-06-18T07:27:08Z</time>
      </trkpt>
      <trkpt lat="45.9757" lon="6.4528">
        <ele>1395.4</ele>
        <time>2019-06-18T07:27:14Z</time>
      </trkpt>
      <trkpt lat="45.97567" lon="6.45275">
        <ele>1395.9</ele>
        <time>2019-06-18T07:27:19Z</time>
      </trkpt>
      <trkpt lat="45.97563" lon="6.4527">
        <ele>1396.4</ele>
        <time>2019-06-18T07:27:24Z</time>
      </trkpt>
      <trkpt lat="45.97561" lon="6.45265">
        <ele>1396.9</ele>
        <time>2019-06-18T07:27:32Z</time>
      </trkpt>
      <trkpt lat="45.97559" lon="6.45259">
        <ele>1397.1</ele>
        <time>2019-06-18T07:27:38Z</time>
      </trkpt>
      <trkpt lat="45.97557" lon="6.45252">
        <ele>1397.4</ele>
        <time>2019-06-18T07:27:45Z</time>
      </trkpt>
      <trkpt lat="45.97555" lon="6.45246">
        <ele>1399</ele>
        <time>2019-06-18T07:27:56Z</time>
      </trkpt>
      <trkpt lat="45.97559" lon="6.45244">
        <ele>1401</ele>
        <time>2019-06-18T07:28:10Z</time>
      </trkpt>
      <trkpt lat="45.97559" lon="6.45237">
        <ele>1403</ele>
        <time>2019-06-18T07:28:22Z</time>
      </trkpt>
      <trkpt lat="45.97559" lon="6.45229">
        <ele>1403.7</ele>
        <time>2019-06-18T07:28:28Z</time>
      </trkpt>
      <trkpt lat="45.97555" lon="6.45223">
        <ele>1404.4</ele>
        <time>2019-06-18T07:28:33Z</time>
      </trkpt>
      <trkpt lat="45.97553" lon="6.45217">
        <ele>1405.2</ele>
        <time>2019-06-18T07:28:38Z</time>
      </trkpt>
      <trkpt lat="45.97552" lon="6.4521">
        <ele>1406.2</ele>
        <time>2019-06-18T07:28:44Z</time>
      </trkpt>
      <trkpt lat="45.9755" lon="6.45204">
        <ele>1407.5</ele>
        <time>2019-06-18T07:28:52Z</time>
      </trkpt>
      <trkpt lat="45.97547" lon="6.45198">
        <ele>1409</ele>
        <time>2019-06-18T07:29:00Z</time>
      </trkpt>
      <trkpt lat="45.97544" lon="6.45193">
        <ele>1410.2</ele>
        <time>2019-06-18T07:29:07Z</time>
      </trkpt>
      <trkpt lat="45.97543" lon="6.45186">
        <ele>1411.3</ele>
        <time>2019-06-18T07:29:14Z</time>
      </trkpt>
      <trkpt lat="45.97542" lon="6.45179">
        <ele>1412.4</ele>
        <time>2019-06-18T07:29:21Z</time>
      </trkpt>
      <trkpt lat="45.97542" lon="6.45173">
        <ele>1413.7</ele>
        <time>2019-06-18T07:29:31Z</time>
      </trkpt>
      <trkpt lat="45.97543" lon="6.45166">
        <ele>1414.6</ele>
        <time>2019-06-18T07:29:41Z</time>
      </trkpt>
      <trkpt lat="45.97542" lon="6.45159">
        <ele>1415</ele>
        <time>2019-06-18T07:29:48Z</time>
      </trkpt>
      <trkpt lat="45.97541" lon="6.45153">
        <ele>1415.5</ele>
        <time>2019-06-18T07:29:55Z</time>
      </trkpt>
      <trkpt lat="45.97545" lon="6.45148">
        <ele>1417.2</ele>
        <time>2019-06-18T07:30:11Z</time>
      </trkpt>
      <trkpt lat="45.97548" lon="6.45143">
        <ele>1418.5</ele>
        <time>2019-06-18T07:30:22Z</time>
      </trkpt>
      <trkpt lat="45.97549" lon="6.45137">
        <ele>1419.1</ele>
        <time>2019-06-18T07:30:31Z</time>
      </trkpt>
      <trkpt lat="45.97551" lon="6.4513">
        <ele>1419.6</ele>
        <time>2019-06-18T07:30:41Z</time>
      </trkpt>
      <trkpt lat="45.97552" lon="6.45124">
        <ele>1420.4</ele>
        <time>2019-06-18T07:30:52Z</time>
      </trkpt>
      <trkpt lat="45.97549" lon="6.45119">
        <ele>1421.6</ele>
        <time>2019-06-18T07:31:01Z</time>
      </trkpt>
      <trkpt lat="45.97545" lon="6.45116">
        <ele>1422.5</ele>
        <time>2019-06-18T07:31:06Z</time>
      </trkpt>
      <trkpt lat="45.97541" lon="6.45114">
        <ele>1423.5</ele>
        <time>2019-06-18T07:31:11Z</time>
      </trkpt>
      <trkpt lat="45.97536" lon="6.45112">
        <ele>1425.5</ele>
        <time>2019-06-18T07:31:27Z</time>
      </trkpt>
      <trkpt lat="45.97535" lon="6.45107">
        <ele>1428.4</ele>
        <time>2019-06-18T07:32:14Z</time>
      </trkpt>
      <trkpt lat="45.97531" lon="6.45101">
        <ele>1429.6</ele>
        <time>2019-06-18T07:33:24Z</time>
      </trkpt>
      <trkpt lat="45.97528" lon="6.45095">
        <ele>1430.5</ele>
        <time>2019-06-18T07:33:39Z</time>
      </trkpt>
      <trkpt lat="45.97524" lon="6.4509">
        <ele>1430.5</ele>
        <time>2019-06-18T07:33:41Z</time>
      </trkpt>
      <trkpt lat="45.97515" lon="6.45071">
        <ele>1433.4</ele>
        <time>2019-06-18T07:34:07Z</time>
      </trkpt>
      <trkpt lat="45.97516" lon="6.45065">
        <ele>1434.8</ele>
        <time>2019-06-18T07:34:17Z</time>
      </trkpt>
      <trkpt lat="45.97515" lon="6.45058">
        <ele>1435.9</ele>
        <time>2019-06-18T07:34:25Z</time>
      </trkpt>
      <trkpt lat="45.97513" lon="6.45052">
        <ele>1436.4</ele>
        <time>2019-06-18T07:34:30Z</time>
      </trkpt>
      <trkpt lat="45.97518" lon="6.45052">
        <ele>1438.2</ele>
        <time>2019-06-18T07:34:47Z</time>
      </trkpt>
      <trkpt lat="45.9752" lon="6.45047">
        <ele>1439.2</ele>
        <time>2019-06-18T07:34:59Z</time>
      </trkpt>
      <trkpt lat="45.97519" lon="6.4504">
        <ele>1440.1</ele>
        <time>2019-06-18T07:35:06Z</time>
      </trkpt>
      <trkpt lat="45.97517" lon="6.45033">
        <ele>1441.3</ele>
        <time>2019-06-18T07:35:14Z</time>
      </trkpt>
      <trkpt lat="45.97516" lon="6.45026">
        <ele>1441.9</ele>
        <time>2019-06-18T07:35:21Z</time>
      </trkpt>
      <trkpt lat="45.97515" lon="6.45019">
        <ele>1442.4</ele>
        <time>2019-06-18T07:35:26Z</time>
      </trkpt>
      <trkpt lat="45.97514" lon="6.45012">
        <ele>1442.9</ele>
        <time>2019-06-18T07:35:31Z</time>
      </trkpt>
      <trkpt lat="45.97513" lon="6.45006">
        <ele>1443.2</ele>
        <time>2019-06-18T07:35:35Z</time>
      </trkpt>
      <trkpt lat="45.9751" lon="6.45">
        <ele>1443.5</ele>
        <time>2019-06-18T07:35:40Z</time>
      </trkpt>
      <trkpt lat="45.97508" lon="6.44993">
        <ele>1443.8</ele>
        <time>2019-06-18T07:35:46Z</time>
      </trkpt>
      <trkpt lat="45.97504" lon="6.44988">
        <ele>1444.3</ele>
        <time>2019-06-18T07:35:52Z</time>
      </trkpt>
      <trkpt lat="45.975" lon="6.44982">
        <ele>1445</ele>
        <time>2019-06-18T07:35:58Z</time>
      </trkpt>
      <trkpt lat="45.97497" lon="6.44976">
        <ele>1445.6</ele>
        <time>2019-06-18T07:36:03Z</time>
      </trkpt>
      <trkpt lat="45.97494" lon="6.4497">
        <ele>1446.2</ele>
        <time>2019-06-18T07:36:09Z</time>
      </trkpt>
      <trkpt lat="45.97493" lon="6.44964">
        <ele>1446.9</ele>
        <time>2019-06-18T07:36:16Z</time>
      </trkpt>
      <trkpt lat="45.97491" lon="6.44957">
        <ele>1447.6</ele>
        <time>2019-06-18T07:36:24Z</time>
      </trkpt>
      <trkpt lat="45.9749" lon="6.44951">
        <ele>1447.7</ele>
        <time>2019-06-18T07:36:29Z</time>
      </trkpt>
      <trkpt lat="45.97489" lon="6.44943">
        <ele>1447.8</ele>
        <time>2019-06-18T07:36:34Z</time>
      </trkpt>
      <trkpt lat="45.97489" lon="6.44937">
        <ele>1448</ele>
        <time>2019-06-18T07:36:39Z</time>
      </trkpt>
      <trkpt lat="45.97488" lon="6.4493">
        <ele>1448.6</ele>
        <time>2019-06-18T07:36:47Z</time>
      </trkpt>
      <trkpt lat="45.97487" lon="6.44923">
        <ele>1449.2</ele>
        <time>2019-06-18T07:36:57Z</time>
      </trkpt>
      <trkpt lat="45.97486" lon="6.44916">
        <ele>1449.6</ele>
        <time>2019-06-18T07:37:07Z</time>
      </trkpt>
      <trkpt lat="45.97487" lon="6.4491">
        <ele>1450</ele>
        <time>2019-06-18T07:37:15Z</time>
      </trkpt>
      <trkpt lat="45.9749" lon="6.44905">
        <ele>1451.3</ele>
        <time>2019-06-18T07:37:31Z</time>
      </trkpt>
      <trkpt lat="45.97494" lon="6.44909">
        <ele>1452.5</ele>
        <time>2019-06-18T07:37:40Z</time>
      </trkpt>
      <trkpt lat="45.97498" lon="6.44913">
        <ele>1453.5</ele>
        <time>2019-06-18T07:37:46Z</time>
      </trkpt>
      <trkpt lat="45.97502" lon="6.44916">
        <ele>1454.7</ele>
        <time>2019-06-18T07:37:52Z</time>
      </trkpt>
      <trkpt lat="45.97505" lon="6.44911">
        <ele>1457.5</ele>
        <time>2019-06-18T07:38:07Z</time>
      </trkpt>
      <trkpt lat="45.97507" lon="6.44904">
        <ele>1458.8</ele>
        <time>2019-06-18T07:38:17Z</time>
      </trkpt>
      <trkpt lat="45.97504" lon="6.44894">
        <ele>1461.9</ele>
        <time>2019-06-18T07:38:36Z</time>
      </trkpt>
      <trkpt lat="45.97505" lon="6.44887">
        <ele>1463.4</ele>
        <time>2019-06-18T07:38:51Z</time>
      </trkpt>
      <trkpt lat="45.97506" lon="6.44881">
        <ele>1466.6</ele>
        <time>2019-06-18T07:39:16Z</time>
      </trkpt>
      <trkpt lat="45.97504" lon="6.44874">
        <ele>1466.3</ele>
        <time>2019-06-18T07:39:29Z</time>
      </trkpt>
      <trkpt lat="45.97504" lon="6.44867">
        <ele>1466.8</ele>
        <time>2019-06-18T07:39:37Z</time>
      </trkpt>
      <trkpt lat="45.97503" lon="6.4486">
        <ele>1467.3</ele>
        <time>2019-06-18T07:39:44Z</time>
      </trkpt>
      <trkpt lat="45.97501" lon="6.44854">
        <ele>1468.4</ele>
        <time>2019-06-18T07:39:54Z</time>
      </trkpt>
      <trkpt lat="45.97499" lon="6.44848">
        <ele>1468.8</ele>
        <time>2019-06-18T07:40:03Z</time>
      </trkpt>
      <trkpt lat="45.97497" lon="6.44842">
        <ele>1469.2</ele>
        <time>2019-06-18T07:40:11Z</time>
      </trkpt>
      <trkpt lat="45.97494" lon="6.44835">
        <ele>1469.8</ele>
        <time>2019-06-18T07:40:20Z</time>
      </trkpt>
      <trkpt lat="45.97491" lon="6.44829">
        <ele>1470</ele>
        <time>2019-06-18T07:40:25Z</time>
      </trkpt>
      <trkpt lat="45.97491" lon="6.44822">
        <ele>1470.4</ele>
        <time>2019-06-18T07:40:33Z</time>
      </trkpt>
      <trkpt lat="45.9749" lon="6.44815">
        <ele>1471.1</ele>
        <time>2019-06-18T07:40:42Z</time>
      </trkpt>
      <trkpt lat="45.9749" lon="6.44809">
        <ele>1471.9</ele>
        <time>2019-06-18T07:40:48Z</time>
      </trkpt>
      <trkpt lat="45.9749" lon="6.44802">
        <ele>1473</ele>
        <time>2019-06-18T07:40:53Z</time>
      </trkpt>
      <trkpt lat="45.97491" lon="6.44795">
        <ele>1474.5</ele>
        <time>2019-06-18T07:41:00Z</time>
      </trkpt>
      <trkpt lat="45.97493" lon="6.44788">
        <ele>1475.9</ele>
        <time>2019-06-18T07:41:07Z</time>
      </trkpt>
      <trkpt lat="45.97492" lon="6.44781">
        <ele>1477</ele>
        <time>2019-06-18T07:41:13Z</time>
      </trkpt>
      <trkpt lat="45.97493" lon="6.44775">
        <ele>1478.2</ele>
        <time>2019-06-18T07:41:19Z</time>
      </trkpt>
      <trkpt lat="45.97498" lon="6.44773">
        <ele>1485.4</ele>
        <time>2019-06-18T07:42:32Z</time>
      </trkpt>
      <trkpt lat="45.97495" lon="6.44768">
        <ele>1487.3</ele>
        <time>2019-06-18T07:43:48Z</time>
      </trkpt>
      <trkpt lat="45.97499" lon="6.4477">
        <ele>1485.8</ele>
        <time>2019-06-18T07:44:39Z</time>
      </trkpt>
      <trkpt lat="45.97501" lon="6.44776">
        <ele>1485.8</ele>
        <time>2019-06-18T07:44:57Z</time>
      </trkpt>
      <trkpt lat="45.97497" lon="6.44775">
        <ele>1484.8</ele>
        <time>2019-06-18T07:45:22Z</time>
      </trkpt>
      <trkpt lat="45.97497" lon="6.44769">
        <ele>1485.1</ele>
        <time>2019-06-18T07:45:37Z</time>
      </trkpt>
      <trkpt lat="45.97492" lon="6.44766">
        <ele>1485.7</ele>
        <time>2019-06-18T07:45:59Z</time>
      </trkpt>
      <trkpt lat="45.97495" lon="6.44771">
        <ele>1487.3</ele>
        <time>2019-06-18T07:47:59Z</time>
      </trkpt>
      <trkpt lat="45.97499" lon="6.44767">
        <ele>1485.4</ele>
        <time>2019-06-18T07:48:32Z</time>
      </trkpt>
      <trkpt lat="45.97494" lon="6.44766">
        <ele>1486.3</ele>
        <time>2019-06-18T07:49:02Z</time>
      </trkpt>
      <trkpt lat="45.97497" lon="6.44771">
        <ele>1486.6</ele>
        <time>2019-06-18T07:49:31Z</time>
      </trkpt>
      <trkpt lat="45.97497" lon="6.44764">
        <ele>1486.3</ele>
        <time>2019-06-18T07:50:33Z</time>
      </trkpt>
      <trkpt lat="45.97501" lon="6.44759">
        <ele>1486.3</ele>
        <time>2019-06-18T07:50:39Z</time>
      </trkpt>
      <trkpt lat="45.97504" lon="6.44754">
        <ele>1486.7</ele>
        <time>2019-06-18T07:50:48Z</time>
      </trkpt>
      <trkpt lat="45.97508" lon="6.4475">
        <ele>1487</ele>
        <time>2019-06-18T07:50:54Z</time>
      </trkpt>
      <trkpt lat="45.97512" lon="6.44745">
        <ele>1487.2</ele>
        <time>2019-06-18T07:51:00Z</time>
      </trkpt>
      <trkpt lat="45.97512" lon="6.44739">
        <ele>1488.3</ele>
        <time>2019-06-18T07:51:16Z</time>
      </trkpt>
      <trkpt lat="45.97508" lon="6.44734">
        <ele>1488.6</ele>
        <time>2019-06-18T07:51:23Z</time>
      </trkpt>
      <trkpt lat="45.97507" lon="6.44728">
        <ele>1490</ele>
        <time>2019-06-18T07:51:52Z</time>
      </trkpt>
      <trkpt lat="45.97505" lon="6.44722">
        <ele>1490.3</ele>
        <time>2019-06-18T07:52:00Z</time>
      </trkpt>
      <trkpt lat="45.97504" lon="6.44715">
        <ele>1490.6</ele>
        <time>2019-06-18T07:52:07Z</time>
      </trkpt>
      <trkpt lat="45.97503" lon="6.44709">
        <ele>1490.9</ele>
        <time>2019-06-18T07:52:14Z</time>
      </trkpt>
      <trkpt lat="45.97501" lon="6.44703">
        <ele>1491.4</ele>
        <time>2019-06-18T07:52:22Z</time>
      </trkpt>
      <trkpt lat="45.97502" lon="6.44696">
        <ele>1491.7</ele>
        <time>2019-06-18T07:52:28Z</time>
      </trkpt>
      <trkpt lat="45.97503" lon="6.44689">
        <ele>1491.8</ele>
        <time>2019-06-18T07:52:33Z</time>
      </trkpt>
      <trkpt lat="45.97505" lon="6.44682">
        <ele>1491.8</ele>
        <time>2019-06-18T07:52:39Z</time>
      </trkpt>
      <trkpt lat="45.97508" lon="6.44676">
        <ele>1492.1</ele>
        <time>2019-06-18T07:52:46Z</time>
      </trkpt>
      <trkpt lat="45.97509" lon="6.44669">
        <ele>1492.1</ele>
        <time>2019-06-18T07:52:55Z</time>
      </trkpt>
      <trkpt lat="45.9751" lon="6.44662">
        <ele>1492.1</ele>
        <time>2019-06-18T07:53:00Z</time>
      </trkpt>
      <trkpt lat="45.97513" lon="6.44656">
        <ele>1492</ele>
        <time>2019-06-18T07:53:07Z</time>
      </trkpt>
      <trkpt lat="45.97509" lon="6.44651">
        <ele>1492</ele>
        <time>2019-06-18T07:53:14Z</time>
      </trkpt>
      <trkpt lat="45.97505" lon="6.44646">
        <ele>1492.1</ele>
        <time>2019-06-18T07:53:19Z</time>
      </trkpt>
      <trkpt lat="45.97506" lon="6.4464">
        <ele>1492.9</ele>
        <time>2019-06-18T07:53:33Z</time>
      </trkpt>
      <trkpt lat="45.9751" lon="6.44635">
        <ele>1493.6</ele>
        <time>2019-06-18T07:53:40Z</time>
      </trkpt>
      <trkpt lat="45.97513" lon="6.4463">
        <ele>1494.9</ele>
        <time>2019-06-18T07:53:49Z</time>
      </trkpt>
      <trkpt lat="45.97516" lon="6.44625">
        <ele>1496.2</ele>
        <time>2019-06-18T07:53:59Z</time>
      </trkpt>
      <trkpt lat="45.97516" lon="6.44618">
        <ele>1497.3</ele>
        <time>2019-06-18T07:54:11Z</time>
      </trkpt>
      <trkpt lat="45.97514" lon="6.44612">
        <ele>1497.8</ele>
        <time>2019-06-18T07:54:18Z</time>
      </trkpt>
      <trkpt lat="45.97511" lon="6.44606">
        <ele>1498.5</ele>
        <time>2019-06-18T07:54:24Z</time>
      </trkpt>
      <trkpt lat="45.97509" lon="6.446">
        <ele>1499.6</ele>
        <time>2019-06-18T07:54:32Z</time>
      </trkpt>
      <trkpt lat="45.97507" lon="6.44594">
        <ele>1501.1</ele>
        <time>2019-06-18T07:54:42Z</time>
      </trkpt>
      <trkpt lat="45.97506" lon="6.44587">
        <ele>1502.2</ele>
        <time>2019-06-18T07:54:51Z</time>
      </trkpt>
      <trkpt lat="45.97505" lon="6.4458">
        <ele>1502.8</ele>
        <time>2019-06-18T07:54:58Z</time>
      </trkpt>
      <trkpt lat="45.97502" lon="6.44574">
        <ele>1503.3</ele>
        <time>2019-06-18T07:55:03Z</time>
      </trkpt>
      <trkpt lat="45.97499" lon="6.44569">
        <ele>1503.7</ele>
        <time>2019-06-18T07:55:10Z</time>
      </trkpt>
      <trkpt lat="45.97497" lon="6.44563">
        <ele>1504.3</ele>
        <time>2019-06-18T07:55:20Z</time>
      </trkpt>
      <trkpt lat="45.97496" lon="6.44556">
        <ele>1505.2</ele>
        <time>2019-06-18T07:55:29Z</time>
      </trkpt>
      <trkpt lat="45.97496" lon="6.44549">
        <ele>1506.1</ele>
        <time>2019-06-18T07:55:37Z</time>
      </trkpt>
      <trkpt lat="45.97493" lon="6.44544">
        <ele>1510</ele>
        <time>2019-06-18T07:56:04Z</time>
      </trkpt>
      <trkpt lat="45.9749" lon="6.44538">
        <ele>1512.5</ele>
        <time>2019-06-18T07:56:27Z</time>
      </trkpt>
      <trkpt lat="45.97485" lon="6.44538">
        <ele>1513.1</ele>
        <time>2019-06-18T07:56:37Z</time>
      </trkpt>
      <trkpt lat="45.9749" lon="6.44529">
        <ele>1515.5</ele>
        <time>2019-06-18T07:59:09Z</time>
      </trkpt>
      <trkpt lat="45.97493" lon="6.44524">
        <ele>1515.5</ele>
        <time>2019-06-18T07:59:12Z</time>
      </trkpt>
      <trkpt lat="45.97497" lon="6.4452">
        <ele>1515.6</ele>
        <time>2019-06-18T07:59:16Z</time>
      </trkpt>
      <trkpt lat="45.97501" lon="6.44515">
        <ele>1515.7</ele>
        <time>2019-06-18T07:59:21Z</time>
      </trkpt>
      <trkpt lat="45.97505" lon="6.44509">
        <ele>1515.8</ele>
        <time>2019-06-18T07:59:25Z</time>
      </trkpt>
      <trkpt lat="45.9751" lon="6.44505">
        <ele>1515.9</ele>
        <time>2019-06-18T07:59:30Z</time>
      </trkpt>
      <trkpt lat="45.97515" lon="6.44502">
        <ele>1516</ele>
        <time>2019-06-18T07:59:34Z</time>
      </trkpt>
      <trkpt lat="45.97519" lon="6.44499">
        <ele>1515.9</ele>
        <time>2019-06-18T07:59:39Z</time>
      </trkpt>
      <trkpt lat="45.97523" lon="6.44496">
        <ele>1515.6</ele>
        <time>2019-06-18T07:59:47Z</time>
      </trkpt>
      <trkpt lat="45.97527" lon="6.4449">
        <ele>1515.7</ele>
        <time>2019-06-18T07:59:54Z</time>
      </trkpt>
      <trkpt lat="45.97531" lon="6.44486">
        <ele>1516.3</ele>
        <time>2019-06-18T08:00:00Z</time>
      </trkpt>
      <trkpt lat="45.97535" lon="6.44482">
        <ele>1516.6</ele>
        <time>2019-06-18T08:00:06Z</time>
      </trkpt>
      <trkpt lat="45.97539" lon="6.44477">
        <ele>1516.7</ele>
        <time>2019-06-18T08:00:10Z</time>
      </trkpt>
      <trkpt lat="45.97543" lon="6.44473">
        <ele>1516.8</ele>
        <time>2019-06-18T08:00:13Z</time>
      </trkpt>
      <trkpt lat="45.97547" lon="6.44471">
        <ele>1516.9</ele>
        <time>2019-06-18T08:00:17Z</time>
      </trkpt>
      <trkpt lat="45.97552" lon="6.44472">
        <ele>1517</ele>
        <time>2019-06-18T08:00:25Z</time>
      </trkpt>
      <trkpt lat="45.97557" lon="6.44472">
        <ele>1517.1</ele>
        <time>2019-06-18T08:00:29Z</time>
      </trkpt>
      <trkpt lat="45.97562" lon="6.44472">
        <ele>1517.1</ele>
        <time>2019-06-18T08:00:34Z</time>
      </trkpt>
      <trkpt lat="45.97567" lon="6.44472">
        <ele>1517.2</ele>
        <time>2019-06-18T08:00:38Z</time>
      </trkpt>
      <trkpt lat="45.9757" lon="6.44477">
        <ele>1519.9</ele>
        <time>2019-06-18T08:01:04Z</time>
      </trkpt>
      <trkpt lat="45.97584" lon="6.44469">
        <ele>1524.5</ele>
        <time>2019-06-18T08:02:53Z</time>
      </trkpt>
      <trkpt lat="45.97589" lon="6.44469">
        <ele>1524.1</ele>
        <time>2019-06-18T08:02:59Z</time>
      </trkpt>
      <trkpt lat="45.97594" lon="6.4447">
        <ele>1523.5</ele>
        <time>2019-06-18T08:03:05Z</time>
      </trkpt>
      <trkpt lat="45.97599" lon="6.4447">
        <ele>1522.9</ele>
        <time>2019-06-18T08:03:11Z</time>
      </trkpt>
      <trkpt lat="45.97604" lon="6.44467">
        <ele>1522.4</ele>
        <time>2019-06-18T08:03:18Z</time>
      </trkpt>
      <trkpt lat="45.97605" lon="6.4446">
        <ele>1521.8</ele>
        <time>2019-06-18T08:03:25Z</time>
      </trkpt>
      <trkpt lat="45.97604" lon="6.44454">
        <ele>1520.8</ele>
        <time>2019-06-18T08:03:35Z</time>
      </trkpt>
      <trkpt lat="45.97603" lon="6.44447">
        <ele>1520.2</ele>
        <time>2019-06-18T08:03:42Z</time>
      </trkpt>
      <trkpt lat="45.97603" lon="6.44439">
        <ele>1519.8</ele>
        <time>2019-06-18T08:03:47Z</time>
      </trkpt>
      <trkpt lat="45.97605" lon="6.44433">
        <ele>1519.7</ele>
        <time>2019-06-18T08:03:53Z</time>
      </trkpt>
      <trkpt lat="45.97608" lon="6.44427">
        <ele>1520</ele>
        <time>2019-06-18T08:04:04Z</time>
      </trkpt>
      <trkpt lat="45.97606" lon="6.44422">
        <ele>1522.7</ele>
        <time>2019-06-18T08:05:10Z</time>
      </trkpt>
      <trkpt lat="45.97603" lon="6.44417">
        <ele>1523.6</ele>
        <time>2019-06-18T08:05:33Z</time>
      </trkpt>
      <trkpt lat="45.97606" lon="6.44422">
        <ele>1523</ele>
        <time>2019-06-18T08:10:07Z</time>
      </trkpt>
      <trkpt lat="45.9761" lon="6.44427">
        <ele>1523.6</ele>
        <time>2019-06-18T08:10:12Z</time>
      </trkpt>
      <trkpt lat="45.97614" lon="6.44431">
        <ele>1524.1</ele>
        <time>2019-06-18T08:10:17Z</time>
      </trkpt>
      <trkpt lat="45.97618" lon="6.44434">
        <ele>1524.4</ele>
        <time>2019-06-18T08:10:22Z</time>
      </trkpt>
      <trkpt lat="45.97622" lon="6.44437">
        <ele>1524.4</ele>
        <time>2019-06-18T08:10:27Z</time>
      </trkpt>
      <trkpt lat="45.97626" lon="6.4444">
        <ele>1524.3</ele>
        <time>2019-06-18T08:10:31Z</time>
      </trkpt>
      <trkpt lat="45.97631" lon="6.44442">
        <ele>1524.2</ele>
        <time>2019-06-18T08:10:35Z</time>
      </trkpt>
      <trkpt lat="45.97636" lon="6.44443">
        <ele>1524.1</ele>
        <time>2019-06-18T08:10:40Z</time>
      </trkpt>
      <trkpt lat="45.97641" lon="6.44444">
        <ele>1523.9</ele>
        <time>2019-06-18T08:10:45Z</time>
      </trkpt>
      <trkpt lat="45.97646" lon="6.44446">
        <ele>1523.8</ele>
        <time>2019-06-18T08:10:50Z</time>
      </trkpt>
      <trkpt lat="45.97651" lon="6.44447">
        <ele>1523.7</ele>
        <time>2019-06-18T08:10:54Z</time>
      </trkpt>
      <trkpt lat="45.97656" lon="6.44449">
        <ele>1523.7</ele>
        <time>2019-06-18T08:10:58Z</time>
      </trkpt>
      <trkpt lat="45.97662" lon="6.44449">
        <ele>1523.8</ele>
        <time>2019-06-18T08:11:03Z</time>
      </trkpt>
      <trkpt lat="45.97667" lon="6.44448">
        <ele>1523.7</ele>
        <time>2019-06-18T08:11:09Z</time>
      </trkpt>
      <trkpt lat="45.97671" lon="6.44449">
        <ele>1523.8</ele>
        <time>2019-06-18T08:11:16Z</time>
      </trkpt>
      <trkpt lat="45.97676" lon="6.4445">
        <ele>1524.3</ele>
        <time>2019-06-18T08:11:24Z</time>
      </trkpt>
      <trkpt lat="45.97682" lon="6.44448">
        <ele>1524.7</ele>
        <time>2019-06-18T08:11:29Z</time>
      </trkpt>
      <trkpt lat="45.97686" lon="6.44447">
        <ele>1525</ele>
        <time>2019-06-18T08:11:34Z</time>
      </trkpt>
      <trkpt lat="45.97691" lon="6.44446">
        <ele>1525.3</ele>
        <time>2019-06-18T08:11:39Z</time>
      </trkpt>
      <trkpt lat="45.97696" lon="6.44446">
        <ele>1525.7</ele>
        <time>2019-06-18T08:11:44Z</time>
      </trkpt>
      <trkpt lat="45.97701" lon="6.44446">
        <ele>1526.1</ele>
        <time>2019-06-18T08:11:48Z</time>
      </trkpt>
      <trkpt lat="45.97706" lon="6.44446">
        <ele>1526.7</ele>
        <time>2019-06-18T08:11:54Z</time>
      </trkpt>
      <trkpt lat="45.97711" lon="6.44446">
        <ele>1527.4</ele>
        <time>2019-06-18T08:12:01Z</time>
      </trkpt>
      <trkpt lat="45.97716" lon="6.44445">
        <ele>1527.8</ele>
        <time>2019-06-18T08:12:05Z</time>
      </trkpt>
      <trkpt lat="45.97721" lon="6.44443">
        <ele>1528.6</ele>
        <time>2019-06-18T08:12:13Z</time>
      </trkpt>
      <trkpt lat="45.97725" lon="6.4444">
        <ele>1529.1</ele>
        <time>2019-06-18T08:12:20Z</time>
      </trkpt>
      <trkpt lat="45.97728" lon="6.44434">
        <ele>1529.4</ele>
        <time>2019-06-18T08:12:26Z</time>
      </trkpt>
      <trkpt lat="45.97729" lon="6.44427">
        <ele>1529.5</ele>
        <time>2019-06-18T08:12:32Z</time>
      </trkpt>
      <trkpt lat="45.97726" lon="6.44421">
        <ele>1529.4</ele>
        <time>2019-06-18T08:12:37Z</time>
      </trkpt>
      <trkpt lat="45.97723" lon="6.44416">
        <ele>1529.3</ele>
        <time>2019-06-18T08:12:42Z</time>
      </trkpt>
      <trkpt lat="45.9772" lon="6.44411">
        <ele>1529.4</ele>
        <time>2019-06-18T08:12:49Z</time>
      </trkpt>
      <trkpt lat="45.97716" lon="6.44407">
        <ele>1529.7</ele>
        <time>2019-06-18T08:12:55Z</time>
      </trkpt>
      <trkpt lat="45.97712" lon="6.44403">
        <ele>1530.1</ele>
        <time>2019-06-18T08:13:00Z</time>
      </trkpt>
      <trkpt lat="45.97708" lon="6.44399">
        <ele>1530.7</ele>
        <time>2019-06-18T08:13:06Z</time>
      </trkpt>
      <trkpt lat="45.97704" lon="6.44395">
        <ele>1531.1</ele>
        <time>2019-06-18T08:13:10Z</time>
      </trkpt>
      <trkpt lat="45.977" lon="6.4439">
        <ele>1531.6</ele>
        <time>2019-06-18T08:13:15Z</time>
      </trkpt>
      <trkpt lat="45.97697" lon="6.44385">
        <ele>1532</ele>
        <time>2019-06-18T08:13:21Z</time>
      </trkpt>
      <trkpt lat="45.97694" lon="6.44381">
        <ele>1532.3</ele>
        <time>2019-06-18T08:13:27Z</time>
      </trkpt>
      <trkpt lat="45.97691" lon="6.44374">
        <ele>1532.7</ele>
        <time>2019-06-18T08:13:34Z</time>
      </trkpt>
      <trkpt lat="45.97689" lon="6.44368">
        <ele>1533</ele>
        <time>2019-06-18T08:13:39Z</time>
      </trkpt>
      <trkpt lat="45.97688" lon="6.44361">
        <ele>1533.4</ele>
        <time>2019-06-18T08:13:46Z</time>
      </trkpt>
      <trkpt lat="45.97687" lon="6.44355">
        <ele>1533.9</ele>
        <time>2019-06-18T08:13:55Z</time>
      </trkpt>
      <trkpt lat="45.97684" lon="6.44349">
        <ele>1534.2</ele>
        <time>2019-06-18T08:14:01Z</time>
      </trkpt>
      <trkpt lat="45.97682" lon="6.44343">
        <ele>1534.6</ele>
        <time>2019-06-18T08:14:08Z</time>
      </trkpt>
      <trkpt lat="45.97681" lon="6.44336">
        <ele>1535</ele>
        <time>2019-06-18T08:14:17Z</time>
      </trkpt>
      <trkpt lat="45.97679" lon="6.4433">
        <ele>1535.4</ele>
        <time>2019-06-18T08:14:23Z</time>
      </trkpt>
      <trkpt lat="45.97677" lon="6.44324">
        <ele>1535.9</ele>
        <time>2019-06-18T08:14:29Z</time>
      </trkpt>
      <trkpt lat="45.97677" lon="6.44317">
        <ele>1537</ele>
        <time>2019-06-18T08:14:37Z</time>
      </trkpt>
      <trkpt lat="45.97674" lon="6.44312">
        <ele>1538</ele>
        <time>2019-06-18T08:14:45Z</time>
      </trkpt>
      <trkpt lat="45.97671" lon="6.44306">
        <ele>1539.2</ele>
        <time>2019-06-18T08:14:53Z</time>
      </trkpt>
      <trkpt lat="45.97667" lon="6.44303">
        <ele>1540.5</ele>
        <time>2019-06-18T08:15:00Z</time>
      </trkpt>
      <trkpt lat="45.97662" lon="6.44301">
        <ele>1541.6</ele>
        <time>2019-06-18T08:15:05Z</time>
      </trkpt>
      <trkpt lat="45.97657" lon="6.44301">
        <ele>1543.4</ele>
        <time>2019-06-18T08:15:12Z</time>
      </trkpt>
      <trkpt lat="45.97653" lon="6.44297">
        <ele>1545</ele>
        <time>2019-06-18T08:15:19Z</time>
      </trkpt>
      <trkpt lat="45.97651" lon="6.44291">
        <ele>1546.2</ele>
        <time>2019-06-18T08:15:25Z</time>
      </trkpt>
      <trkpt lat="45.97648" lon="6.44286">
        <ele>1547.6</ele>
        <time>2019-06-18T08:15:34Z</time>
      </trkpt>
      <trkpt lat="45.97646" lon="6.4428">
        <ele>1548.4</ele>
        <time>2019-06-18T08:15:43Z</time>
      </trkpt>
      <trkpt lat="45.97645" lon="6.44273">
        <ele>1548.9</ele>
        <time>2019-06-18T08:15:51Z</time>
      </trkpt>
      <trkpt lat="45.97642" lon="6.44267">
        <ele>1549.5</ele>
        <time>2019-06-18T08:15:59Z</time>
      </trkpt>
      <trkpt lat="45.97639" lon="6.44262">
        <ele>1550.2</ele>
        <time>2019-06-18T08:16:06Z</time>
      </trkpt>
      <trkpt lat="45.97639" lon="6.44255">
        <ele>1550.8</ele>
        <time>2019-06-18T08:16:13Z</time>
      </trkpt>
      <trkpt lat="45.9764" lon="6.44248">
        <ele>1551.2</ele>
        <time>2019-06-18T08:16:20Z</time>
      </trkpt>
      <trkpt lat="45.9764" lon="6.44241">
        <ele>1551.5</ele>
        <time>2019-06-18T08:16:25Z</time>
      </trkpt>
      <trkpt lat="45.97639" lon="6.44235">
        <ele>1551.9</ele>
        <time>2019-06-18T08:16:32Z</time>
      </trkpt>
      <trkpt lat="45.97638" lon="6.44228">
        <ele>1552.4</ele>
        <time>2019-06-18T08:16:38Z</time>
      </trkpt>
      <trkpt lat="45.97637" lon="6.44221">
        <ele>1553.1</ele>
        <time>2019-06-18T08:16:44Z</time>
      </trkpt>
      <trkpt lat="45.97637" lon="6.44215">
        <ele>1553.6</ele>
        <time>2019-06-18T08:16:54Z</time>
      </trkpt>
      <trkpt lat="45.97637" lon="6.44208">
        <ele>1555.9</ele>
        <time>2019-06-18T08:17:12Z</time>
      </trkpt>
      <trkpt lat="45.97639" lon="6.44202">
        <ele>1558.2</ele>
        <time>2019-06-18T08:17:29Z</time>
      </trkpt>
      <trkpt lat="45.97643" lon="6.44198">
        <ele>1559.2</ele>
        <time>2019-06-18T08:17:43Z</time>
      </trkpt>
      <trkpt lat="45.97642" lon="6.44191">
        <ele>1560.1</ele>
        <time>2019-06-18T08:17:57Z</time>
      </trkpt>
      <trkpt lat="45.97647" lon="6.44191">
        <ele>1562.2</ele>
        <time>2019-06-18T08:18:16Z</time>
      </trkpt>
      <trkpt lat="45.9765" lon="6.44185">
        <ele>1566.1</ele>
        <time>2019-06-18T08:18:52Z</time>
      </trkpt>
      <trkpt lat="45.97654" lon="6.44183">
        <ele>1567.2</ele>
        <time>2019-06-18T08:19:07Z</time>
      </trkpt>
      <trkpt lat="45.97662" lon="6.4418">
        <ele>1569.8</ele>
        <time>2019-06-18T08:20:18Z</time>
      </trkpt>
      <trkpt lat="45.97666" lon="6.44178">
        <ele>1570.1</ele>
        <time>2019-06-18T08:20:22Z</time>
      </trkpt>
      <trkpt lat="45.9767" lon="6.44175">
        <ele>1570.9</ele>
        <time>2019-06-18T08:20:29Z</time>
      </trkpt>
      <trkpt lat="45.97674" lon="6.44172">
        <ele>1571.6</ele>
        <time>2019-06-18T08:20:35Z</time>
      </trkpt>
      <trkpt lat="45.97679" lon="6.44169">
        <ele>1572.3</ele>
        <time>2019-06-18T08:20:40Z</time>
      </trkpt>
      <trkpt lat="45.97684" lon="6.44169">
        <ele>1574.3</ele>
        <time>2019-06-18T08:21:00Z</time>
      </trkpt>
      <trkpt lat="45.97688" lon="6.44166">
        <ele>1575.2</ele>
        <time>2019-06-18T08:21:08Z</time>
      </trkpt>
      <trkpt lat="45.97689" lon="6.44159">
        <ele>1576.4</ele>
        <time>2019-06-18T08:21:21Z</time>
      </trkpt>
      <trkpt lat="45.97695" lon="6.44151">
        <ele>1578.1</ele>
        <time>2019-06-18T08:21:39Z</time>
      </trkpt>
      <trkpt lat="45.977" lon="6.44151">
        <ele>1579.1</ele>
        <time>2019-06-18T08:21:48Z</time>
      </trkpt>
      <trkpt lat="45.9771" lon="6.44151">
        <ele>1582.9</ele>
        <time>2019-06-18T08:22:10Z</time>
      </trkpt>
      <trkpt lat="45.97715" lon="6.4415">
        <ele>1583.8</ele>
        <time>2019-06-18T08:22:16Z</time>
      </trkpt>
      <trkpt lat="45.9772" lon="6.44151">
        <ele>1584.7</ele>
        <time>2019-06-18T08:22:22Z</time>
      </trkpt>
      <trkpt lat="45.97724" lon="6.44151">
        <ele>1586.1</ele>
        <time>2019-06-18T08:22:33Z</time>
      </trkpt>
      <trkpt lat="45.97729" lon="6.44153">
        <ele>1588</ele>
        <time>2019-06-18T08:22:47Z</time>
      </trkpt>
      <trkpt lat="45.97734" lon="6.44154">
        <ele>1589.3</ele>
        <time>2019-06-18T08:23:05Z</time>
      </trkpt>
      <trkpt lat="45.97738" lon="6.44156">
        <ele>1589.7</ele>
        <time>2019-06-18T08:23:17Z</time>
      </trkpt>
      <trkpt lat="45.97748" lon="6.44159">
        <ele>1594.5</ele>
        <time>2019-06-18T08:24:16Z</time>
      </trkpt>
      <trkpt lat="45.97751" lon="6.44165">
        <ele>1596.3</ele>
        <time>2019-06-18T08:24:27Z</time>
      </trkpt>
      <trkpt lat="45.97755" lon="6.44168">
        <ele>1597.9</ele>
        <time>2019-06-18T08:24:35Z</time>
      </trkpt>
      <trkpt lat="45.97759" lon="6.4417">
        <ele>1599.3</ele>
        <time>2019-06-18T08:24:44Z</time>
      </trkpt>
      <trkpt lat="45.97764" lon="6.4417">
        <ele>1600.3</ele>
        <time>2019-06-18T08:24:53Z</time>
      </trkpt>
      <trkpt lat="45.97769" lon="6.44171">
        <ele>1601.2</ele>
        <time>2019-06-18T08:25:02Z</time>
      </trkpt>
      <trkpt lat="45.97773" lon="6.44173">
        <ele>1601.8</ele>
        <time>2019-06-18T08:25:08Z</time>
      </trkpt>
      <trkpt lat="45.97784" lon="6.44176">
        <ele>1605.2</ele>
        <time>2019-06-18T08:25:31Z</time>
      </trkpt>
      <trkpt lat="45.97793" lon="6.44174">
        <ele>1611.3</ele>
        <time>2019-06-18T08:25:51Z</time>
      </trkpt>
      <trkpt lat="45.97798" lon="6.44174">
        <ele>1612.1</ele>
        <time>2019-06-18T08:25:57Z</time>
      </trkpt>
      <trkpt lat="45.97803" lon="6.44177">
        <ele>1613.3</ele>
        <time>2019-06-18T08:26:06Z</time>
      </trkpt>
      <trkpt lat="45.9781" lon="6.44184">
        <ele>1617.4</ele>
        <time>2019-06-18T08:26:27Z</time>
      </trkpt>
      <trkpt lat="45.97814" lon="6.44187">
        <ele>1618.6</ele>
        <time>2019-06-18T08:26:42Z</time>
      </trkpt>
      <trkpt lat="45.97819" lon="6.44187">
        <ele>1619.9</ele>
        <time>2019-06-18T08:27:00Z</time>
      </trkpt>
      <trkpt lat="45.97824" lon="6.44186">
        <ele>1620.6</ele>
        <time>2019-06-18T08:27:10Z</time>
      </trkpt>
      <trkpt lat="45.97828" lon="6.44186">
        <ele>1621.2</ele>
        <time>2019-06-18T08:27:18Z</time>
      </trkpt>
      <trkpt lat="45.97833" lon="6.44186">
        <ele>1622</ele>
        <time>2019-06-18T08:27:31Z</time>
      </trkpt>
      <trkpt lat="45.97838" lon="6.44187">
        <ele>1622.4</ele>
        <time>2019-06-18T08:27:36Z</time>
      </trkpt>
      <trkpt lat="45.97843" lon="6.44185">
        <ele>1622.8</ele>
        <time>2019-06-18T08:27:41Z</time>
      </trkpt>
      <trkpt lat="45.97846" lon="6.4418">
        <ele>1623</ele>
        <time>2019-06-18T08:27:49Z</time>
      </trkpt>
      <trkpt lat="45.9785" lon="6.44175">
        <ele>1623.8</ele>
        <time>2019-06-18T08:28:03Z</time>
      </trkpt>
      <trkpt lat="45.97854" lon="6.44178">
        <ele>1625</ele>
        <time>2019-06-18T08:28:14Z</time>
      </trkpt>
      <trkpt lat="45.97859" lon="6.44178">
        <ele>1626.9</ele>
        <time>2019-06-18T08:28:29Z</time>
      </trkpt>
      <trkpt lat="45.97864" lon="6.44181">
        <ele>1627.9</ele>
        <time>2019-06-18T08:28:39Z</time>
      </trkpt>
      <trkpt lat="45.97869" lon="6.4418">
        <ele>1629</ele>
        <time>2019-06-18T08:28:49Z</time>
      </trkpt>
      <trkpt lat="45.97873" lon="6.44177">
        <ele>1630.1</ele>
        <time>2019-06-18T08:28:59Z</time>
      </trkpt>
      <trkpt lat="45.97877" lon="6.44174">
        <ele>1631.2</ele>
        <time>2019-06-18T08:29:13Z</time>
      </trkpt>
      <trkpt lat="45.97882" lon="6.44175">
        <ele>1630.8</ele>
        <time>2019-06-18T08:29:37Z</time>
      </trkpt>
      <trkpt lat="45.97883" lon="6.44169">
        <ele>1632.6</ele>
        <time>2019-06-18T08:30:45Z</time>
      </trkpt>
      <trkpt lat="45.97886" lon="6.44163">
        <ele>1633.4</ele>
        <time>2019-06-18T08:30:54Z</time>
      </trkpt>
      <trkpt lat="45.9789" lon="6.44159">
        <ele>1634.1</ele>
        <time>2019-06-18T08:31:00Z</time>
      </trkpt>
      <trkpt lat="45.97893" lon="6.44154">
        <ele>1635.3</ele>
        <time>2019-06-18T08:31:08Z</time>
      </trkpt>
      <trkpt lat="45.97897" lon="6.44151">
        <ele>1636.3</ele>
        <time>2019-06-18T08:31:15Z</time>
      </trkpt>
      <trkpt lat="45.97902" lon="6.44146">
        <ele>1637.9</ele>
        <time>2019-06-18T08:31:30Z</time>
      </trkpt>
      <trkpt lat="45.97906" lon="6.44144">
        <ele>1640.8</ele>
        <time>2019-06-18T08:31:47Z</time>
      </trkpt>
      <trkpt lat="45.97911" lon="6.44142">
        <ele>1643.7</ele>
        <time>2019-06-18T08:32:07Z</time>
      </trkpt>
      <trkpt lat="45.97915" lon="6.44137">
        <ele>1644.5</ele>
        <time>2019-06-18T08:32:14Z</time>
      </trkpt>
      <trkpt lat="45.97919" lon="6.44132">
        <ele>1645.1</ele>
        <time>2019-06-18T08:32:23Z</time>
      </trkpt>
      <trkpt lat="45.97922" lon="6.44126">
        <ele>1645.9</ele>
        <time>2019-06-18T08:32:34Z</time>
      </trkpt>
      <trkpt lat="45.97929" lon="6.44116">
        <ele>1654.4</ele>
        <time>2019-06-18T08:41:29Z</time>
      </trkpt>
      <trkpt lat="45.9793" lon="6.4411">
        <ele>1655.4</ele>
        <time>2019-06-18T08:41:41Z</time>
      </trkpt>
      <trkpt lat="45.97934" lon="6.44106">
        <ele>1657.8</ele>
        <time>2019-06-18T08:42:00Z</time>
      </trkpt>
      <trkpt lat="45.97939" lon="6.44104">
        <ele>1658.7</ele>
        <time>2019-06-18T08:42:09Z</time>
      </trkpt>
      <trkpt lat="45.97943" lon="6.44106">
        <ele>1661</ele>
        <time>2019-06-18T08:42:20Z</time>
      </trkpt>
      <trkpt lat="45.97948" lon="6.44108">
        <ele>1663.5</ele>
        <time>2019-06-18T08:42:29Z</time>
      </trkpt>
      <trkpt lat="45.97953" lon="6.44109">
        <ele>1664.4</ele>
        <time>2019-06-18T08:42:33Z</time>
      </trkpt>
      <trkpt lat="45.97958" lon="6.44108">
        <ele>1665.8</ele>
        <time>2019-06-18T08:42:40Z</time>
      </trkpt>
      <trkpt lat="45.97962" lon="6.44105">
        <ele>1667.4</ele>
        <time>2019-06-18T08:42:53Z</time>
      </trkpt>
      <trkpt lat="45.97964" lon="6.44098">
        <ele>1668.2</ele>
        <time>2019-06-18T08:43:01Z</time>
      </trkpt>
      <trkpt lat="45.97968" lon="6.44093">
        <ele>1668.8</ele>
        <time>2019-06-18T08:43:07Z</time>
      </trkpt>
      <trkpt lat="45.97966" lon="6.44086">
        <ele>1670.2</ele>
        <time>2019-06-18T08:43:24Z</time>
      </trkpt>
      <trkpt lat="45.97964" lon="6.4408">
        <ele>1670.7</ele>
        <time>2019-06-18T08:43:30Z</time>
      </trkpt>
      <trkpt lat="45.97962" lon="6.44073">
        <ele>1671.1</ele>
        <time>2019-06-18T08:43:35Z</time>
      </trkpt>
      <trkpt lat="45.9796" lon="6.44067">
        <ele>1671.3</ele>
        <time>2019-06-18T08:43:42Z</time>
      </trkpt>
      <trkpt lat="45.97961" lon="6.4406">
        <ele>1671.5</ele>
        <time>2019-06-18T08:43:52Z</time>
      </trkpt>
      <trkpt lat="45.97961" lon="6.44053">
        <ele>1671.5</ele>
        <time>2019-06-18T08:43:59Z</time>
      </trkpt>
      <trkpt lat="45.97957" lon="6.44048">
        <ele>1672.1</ele>
        <time>2019-06-18T08:44:08Z</time>
      </trkpt>
      <trkpt lat="45.97953" lon="6.44044">
        <ele>1673.5</ele>
        <time>2019-06-18T08:44:19Z</time>
      </trkpt>
      <trkpt lat="45.97949" lon="6.44041">
        <ele>1674.5</ele>
        <time>2019-06-18T08:44:27Z</time>
      </trkpt>
      <trkpt lat="45.97944" lon="6.44038">
        <ele>1675.4</ele>
        <time>2019-06-18T08:44:35Z</time>
      </trkpt>
      <trkpt lat="45.9794" lon="6.44036">
        <ele>1676.1</ele>
        <time>2019-06-18T08:44:42Z</time>
      </trkpt>
      <trkpt lat="45.97936" lon="6.44031">
        <ele>1676.9</ele>
        <time>2019-06-18T08:44:48Z</time>
      </trkpt>
      <trkpt lat="45.97934" lon="6.44025">
        <ele>1677.6</ele>
        <time>2019-06-18T08:44:53Z</time>
      </trkpt>
      <trkpt lat="45.97932" lon="6.44018">
        <ele>1678.1</ele>
        <time>2019-06-18T08:45:00Z</time>
      </trkpt>
      <trkpt lat="45.97929" lon="6.44013">
        <ele>1678.5</ele>
        <time>2019-06-18T08:45:08Z</time>
      </trkpt>
      <trkpt lat="45.9793" lon="6.44006">
        <ele>1680.5</ele>
        <time>2019-06-18T08:45:27Z</time>
      </trkpt>
      <trkpt lat="45.97935" lon="6.44004">
        <ele>1682</ele>
        <time>2019-06-18T08:45:36Z</time>
      </trkpt>
      <trkpt lat="45.97935" lon="6.43997">
        <ele>1684</ele>
        <time>2019-06-18T08:45:49Z</time>
      </trkpt>
      <trkpt lat="45.97939" lon="6.43993">
        <ele>1686.5</ele>
        <time>2019-06-18T08:46:08Z</time>
      </trkpt>
      <trkpt lat="45.97942" lon="6.43988">
        <ele>1687.4</ele>
        <time>2019-06-18T08:46:14Z</time>
      </trkpt>
      <trkpt lat="45.97943" lon="6.43981">
        <ele>1689.2</ele>
        <time>2019-06-18T08:46:26Z</time>
      </trkpt>
      <trkpt lat="45.9794" lon="6.43976">
        <ele>1690.5</ele>
        <time>2019-06-18T08:46:38Z</time>
      </trkpt>
      <trkpt lat="45.97936" lon="6.43971">
        <ele>1692.1</ele>
        <time>2019-06-18T08:46:51Z</time>
      </trkpt>
      <trkpt lat="45.97934" lon="6.43966">
        <ele>1693.7</ele>
        <time>2019-06-18T08:47:01Z</time>
      </trkpt>
      <trkpt lat="45.9793" lon="6.43961">
        <ele>1695</ele>
        <time>2019-06-18T08:47:09Z</time>
      </trkpt>
      <trkpt lat="45.97926" lon="6.43957">
        <ele>1697.3</ele>
        <time>2019-06-18T08:47:21Z</time>
      </trkpt>
      <trkpt lat="45.97922" lon="6.43953">
        <ele>1698.6</ele>
        <time>2019-06-18T08:47:27Z</time>
      </trkpt>
      <trkpt lat="45.97919" lon="6.43948">
        <ele>1699.5</ele>
        <time>2019-06-18T08:47:33Z</time>
      </trkpt>
      <trkpt lat="45.97921" lon="6.43942">
        <ele>1700.8</ele>
        <time>2019-06-18T08:47:43Z</time>
      </trkpt>
      <trkpt lat="45.97925" lon="6.43941">
        <ele>1701.6</ele>
        <time>2019-06-18T08:47:51Z</time>
      </trkpt>
      <trkpt lat="45.97926" lon="6.43934">
        <ele>1702.4</ele>
        <time>2019-06-18T08:48:10Z</time>
      </trkpt>
      <trkpt lat="45.97925" lon="6.43928">
        <ele>1703.2</ele>
        <time>2019-06-18T08:48:19Z</time>
      </trkpt>
      <trkpt lat="45.97923" lon="6.43921">
        <ele>1704.2</ele>
        <time>2019-06-18T08:48:30Z</time>
      </trkpt>
      <trkpt lat="45.97924" lon="6.43914">
        <ele>1705.6</ele>
        <time>2019-06-18T08:48:39Z</time>
      </trkpt>
      <trkpt lat="45.97926" lon="6.43908">
        <ele>1706.5</ele>
        <time>2019-06-18T08:48:47Z</time>
      </trkpt>
      <trkpt lat="45.97929" lon="6.43903">
        <ele>1707.6</ele>
        <time>2019-06-18T08:48:56Z</time>
      </trkpt>
      <trkpt lat="45.97934" lon="6.43901">
        <ele>1709</ele>
        <time>2019-06-18T08:49:04Z</time>
      </trkpt>
      <trkpt lat="45.97938" lon="6.43898">
        <ele>1709.9</ele>
        <time>2019-06-18T08:49:09Z</time>
      </trkpt>
      <trkpt lat="45.97943" lon="6.43898">
        <ele>1710.6</ele>
        <time>2019-06-18T08:49:13Z</time>
      </trkpt>
      <trkpt lat="45.97948" lon="6.43898">
        <ele>1712</ele>
        <time>2019-06-18T08:49:19Z</time>
      </trkpt>
      <trkpt lat="45.97953" lon="6.43898">
        <ele>1713.7</ele>
        <time>2019-06-18T08:49:26Z</time>
      </trkpt>
      <trkpt lat="45.97957" lon="6.439">
        <ele>1715.2</ele>
        <time>2019-06-18T08:49:36Z</time>
      </trkpt>
      <trkpt lat="45.97955" lon="6.43898">
        <ele>1716.9</ele>
        <time>2019-06-18T08:49:56Z</time>
      </trkpt>
      <trkpt lat="45.97959" lon="6.43894">
        <ele>1726.1</ele>
        <time>2019-06-18T08:53:06Z</time>
      </trkpt>
      <trkpt lat="45.97972" lon="6.43891">
        <ele>1728.1</ele>
        <time>2019-06-18T08:53:21Z</time>
      </trkpt>
      <trkpt lat="45.97976" lon="6.43889">
        <ele>1729.3</ele>
        <time>2019-06-18T08:53:37Z</time>
      </trkpt>
      <trkpt lat="45.97979" lon="6.43884">
        <ele>1729.5</ele>
        <time>2019-06-18T08:53:46Z</time>
      </trkpt>
      <trkpt lat="45.97982" lon="6.4388">
        <ele>1729.6</ele>
        <time>2019-06-18T08:53:52Z</time>
      </trkpt>
      <trkpt lat="45.9798" lon="6.43874">
        <ele>1729.4</ele>
        <time>2019-06-18T08:54:10Z</time>
      </trkpt>
      <trkpt lat="45.97976" lon="6.4387">
        <ele>1729.9</ele>
        <time>2019-06-18T08:54:21Z</time>
      </trkpt>
      <trkpt lat="45.97972" lon="6.43867">
        <ele>1730.6</ele>
        <time>2019-06-18T08:54:29Z</time>
      </trkpt>
      <trkpt lat="45.9797" lon="6.4386">
        <ele>1731.3</ele>
        <time>2019-06-18T08:54:40Z</time>
      </trkpt>
      <trkpt lat="45.97973" lon="6.43855">
        <ele>1731.8</ele>
        <time>2019-06-18T08:54:51Z</time>
      </trkpt>
      <trkpt lat="45.97977" lon="6.43852">
        <ele>1732.4</ele>
        <time>2019-06-18T08:54:57Z</time>
      </trkpt>
      <trkpt lat="45.9798" lon="6.43847">
        <ele>1732.8</ele>
        <time>2019-06-18T08:55:02Z</time>
      </trkpt>
      <trkpt lat="45.97983" lon="6.43842">
        <ele>1733.4</ele>
        <time>2019-06-18T08:55:10Z</time>
      </trkpt>
      <trkpt lat="45.97987" lon="6.43838">
        <ele>1733.9</ele>
        <time>2019-06-18T08:55:21Z</time>
      </trkpt>
      <trkpt lat="45.97991" lon="6.43833">
        <ele>1733.6</ele>
        <time>2019-06-18T08:55:33Z</time>
      </trkpt>
      <trkpt lat="45.97992" lon="6.43827">
        <ele>1733.7</ele>
        <time>2019-06-18T08:55:43Z</time>
      </trkpt>
      <trkpt lat="45.97991" lon="6.43821">
        <ele>1734</ele>
        <time>2019-06-18T08:55:52Z</time>
      </trkpt>
      <trkpt lat="45.97987" lon="6.43818">
        <ele>1735.1</ele>
        <time>2019-06-18T08:56:02Z</time>
      </trkpt>
      <trkpt lat="45.97983" lon="6.43813">
        <ele>1737.2</ele>
        <time>2019-06-18T08:56:11Z</time>
      </trkpt>
      <trkpt lat="45.9798" lon="6.43807">
        <ele>1738.8</ele>
        <time>2019-06-18T08:56:18Z</time>
      </trkpt>
      <trkpt lat="45.97977" lon="6.43802">
        <ele>1740.7</ele>
        <time>2019-06-18T08:56:27Z</time>
      </trkpt>
      <trkpt lat="45.97974" lon="6.43797">
        <ele>1742.3</ele>
        <time>2019-06-18T08:56:35Z</time>
      </trkpt>
      <trkpt lat="45.97971" lon="6.43792">
        <ele>1743.5</ele>
        <time>2019-06-18T08:56:42Z</time>
      </trkpt>
      <trkpt lat="45.97969" lon="6.43786">
        <ele>1745.2</ele>
        <time>2019-06-18T08:56:51Z</time>
      </trkpt>
      <trkpt lat="45.97967" lon="6.43779">
        <ele>1746.5</ele>
        <time>2019-06-18T08:56:58Z</time>
      </trkpt>
      <trkpt lat="45.97964" lon="6.43774">
        <ele>1747.7</ele>
        <time>2019-06-18T08:57:07Z</time>
      </trkpt>
      <trkpt lat="45.97965" lon="6.43768">
        <ele>1748.6</ele>
        <time>2019-06-18T08:57:16Z</time>
      </trkpt>
      <trkpt lat="45.97965" lon="6.4376">
        <ele>1748.8</ele>
        <time>2019-06-18T08:57:27Z</time>
      </trkpt>
      <trkpt lat="45.97964" lon="6.43753">
        <ele>1749</ele>
        <time>2019-06-18T08:57:40Z</time>
      </trkpt>
      <trkpt lat="45.97961" lon="6.43747">
        <ele>1749</ele>
        <time>2019-06-18T08:57:45Z</time>
      </trkpt>
      <trkpt lat="45.9796" lon="6.4374">
        <ele>1749.1</ele>
        <time>2019-06-18T08:57:50Z</time>
      </trkpt>
      <trkpt lat="45.97958" lon="6.43733">
        <ele>1749.2</ele>
        <time>2019-06-18T08:57:55Z</time>
      </trkpt>
      <trkpt lat="45.97957" lon="6.43726">
        <ele>1749.5</ele>
        <time>2019-06-18T08:58:01Z</time>
      </trkpt>
      <trkpt lat="45.97957" lon="6.43719">
        <ele>1750.1</ele>
        <time>2019-06-18T08:58:08Z</time>
      </trkpt>
      <trkpt lat="45.97955" lon="6.43712">
        <ele>1751.5</ele>
        <time>2019-06-18T08:58:17Z</time>
      </trkpt>
      <trkpt lat="45.97954" lon="6.43705">
        <ele>1752.2</ele>
        <time>2019-06-18T08:58:22Z</time>
      </trkpt>
      <trkpt lat="45.97955" lon="6.43699">
        <ele>1753</ele>
        <time>2019-06-18T08:58:29Z</time>
      </trkpt>
      <trkpt lat="45.97957" lon="6.43693">
        <ele>1753.5</ele>
        <time>2019-06-18T08:58:36Z</time>
      </trkpt>
      <trkpt lat="45.97957" lon="6.43685">
        <ele>1754</ele>
        <time>2019-06-18T08:58:42Z</time>
      </trkpt>
      <trkpt lat="45.97955" lon="6.43679">
        <ele>1754.3</ele>
        <time>2019-06-18T08:58:48Z</time>
      </trkpt>
      <trkpt lat="45.97954" lon="6.43672">
        <ele>1754.5</ele>
        <time>2019-06-18T08:58:53Z</time>
      </trkpt>
      <trkpt lat="45.97954" lon="6.43665">
        <ele>1754.6</ele>
        <time>2019-06-18T08:58:58Z</time>
      </trkpt>
      <trkpt lat="45.97954" lon="6.43658">
        <ele>1754.8</ele>
        <time>2019-06-18T08:59:03Z</time>
      </trkpt>
      <trkpt lat="45.97954" lon="6.43651">
        <ele>1755.4</ele>
        <time>2019-06-18T08:59:08Z</time>
      </trkpt>
      <trkpt lat="45.97955" lon="6.43644">
        <ele>1756.1</ele>
        <time>2019-06-18T08:59:15Z</time>
      </trkpt>
      <trkpt lat="45.97956" lon="6.43638">
        <ele>1757.1</ele>
        <time>2019-06-18T08:59:26Z</time>
      </trkpt>
      <trkpt lat="45.97956" lon="6.43631">
        <ele>1757.8</ele>
        <time>2019-06-18T08:59:35Z</time>
      </trkpt>
      <trkpt lat="45.9796" lon="6.43628">
        <ele>1758.4</ele>
        <time>2019-06-18T08:59:47Z</time>
      </trkpt>
      <trkpt lat="45.97966" lon="6.43628">
        <ele>1758.9</ele>
        <time>2019-06-18T08:59:53Z</time>
      </trkpt>
      <trkpt lat="45.97971" lon="6.43629">
        <ele>1759.8</ele>
        <time>2019-06-18T08:59:59Z</time>
      </trkpt>
      <trkpt lat="45.97975" lon="6.43631">
        <ele>1761</ele>
        <time>2019-06-18T09:00:07Z</time>
      </trkpt>
      <trkpt lat="45.9798" lon="6.43633">
        <ele>1761.3</ele>
        <time>2019-06-18T09:00:11Z</time>
      </trkpt>
      <trkpt lat="45.97985" lon="6.43635">
        <ele>1761.8</ele>
        <time>2019-06-18T09:00:16Z</time>
      </trkpt>
      <trkpt lat="45.9799" lon="6.43638">
        <ele>1762.6</ele>
        <time>2019-06-18T09:00:22Z</time>
      </trkpt>
      <trkpt lat="45.97993" lon="6.43634">
        <ele>1763.8</ele>
        <time>2019-06-18T09:00:31Z</time>
      </trkpt>
      <trkpt lat="45.97992" lon="6.43627">
        <ele>1764.9</ele>
        <time>2019-06-18T09:00:39Z</time>
      </trkpt>
      <trkpt lat="45.97989" lon="6.43621">
        <ele>1765.7</ele>
        <time>2019-06-18T09:00:46Z</time>
      </trkpt>
      <trkpt lat="45.97985" lon="6.43617">
        <ele>1766</ele>
        <time>2019-06-18T09:00:52Z</time>
      </trkpt>
      <trkpt lat="45.97982" lon="6.43612">
        <ele>1766.5</ele>
        <time>2019-06-18T09:00:59Z</time>
      </trkpt>
      <trkpt lat="45.97978" lon="6.43607">
        <ele>1767.3</ele>
        <time>2019-06-18T09:01:07Z</time>
      </trkpt>
      <trkpt lat="45.97975" lon="6.43601">
        <ele>1767.7</ele>
        <time>2019-06-18T09:01:11Z</time>
      </trkpt>
      <trkpt lat="45.97972" lon="6.43596">
        <ele>1768.4</ele>
        <time>2019-06-18T09:01:18Z</time>
      </trkpt>
      <trkpt lat="45.97968" lon="6.43593">
        <ele>1769.6</ele>
        <time>2019-06-18T09:01:27Z</time>
      </trkpt>
      <trkpt lat="45.97965" lon="6.43588">
        <ele>1771.5</ele>
        <time>2019-06-18T09:01:39Z</time>
      </trkpt>
      <trkpt lat="45.97962" lon="6.43583">
        <ele>1772.6</ele>
        <time>2019-06-18T09:01:48Z</time>
      </trkpt>
      <trkpt lat="45.97958" lon="6.4358">
        <ele>1774.5</ele>
        <time>2019-06-18T09:02:02Z</time>
      </trkpt>
      <trkpt lat="45.97954" lon="6.43577">
        <ele>1775.5</ele>
        <time>2019-06-18T09:02:10Z</time>
      </trkpt>
      <trkpt lat="45.97949" lon="6.43571">
        <ele>1776.3</ele>
        <time>2019-06-18T09:02:19Z</time>
      </trkpt>
      <trkpt lat="45.97945" lon="6.43569">
        <ele>1777.1</ele>
        <time>2019-06-18T09:02:26Z</time>
      </trkpt>
      <trkpt lat="45.97941" lon="6.43564">
        <ele>1778</ele>
        <time>2019-06-18T09:02:34Z</time>
      </trkpt>
      <trkpt lat="45.97937" lon="6.43561">
        <ele>1780</ele>
        <time>2019-06-18T09:02:47Z</time>
      </trkpt>
      <trkpt lat="45.97933" lon="6.43556">
        <ele>1781.7</ele>
        <time>2019-06-18T09:02:57Z</time>
      </trkpt>
      <trkpt lat="45.97931" lon="6.43549">
        <ele>1783.5</ele>
        <time>2019-06-18T09:03:09Z</time>
      </trkpt>
      <trkpt lat="45.97934" lon="6.43543">
        <ele>1784.9</ele>
        <time>2019-06-18T09:03:23Z</time>
      </trkpt>
      <trkpt lat="45.97938" lon="6.4354">
        <ele>1786.9</ele>
        <time>2019-06-18T09:03:35Z</time>
      </trkpt>
      <trkpt lat="45.97943" lon="6.4354">
        <ele>1788</ele>
        <time>2019-06-18T09:03:41Z</time>
      </trkpt>
      <trkpt lat="45.97948" lon="6.43539">
        <ele>1789.8</ele>
        <time>2019-06-18T09:03:51Z</time>
      </trkpt>
      <trkpt lat="45.97952" lon="6.43536">
        <ele>1791.2</ele>
        <time>2019-06-18T09:03:58Z</time>
      </trkpt>
      <trkpt lat="45.97952" lon="6.43529">
        <ele>1793.2</ele>
        <time>2019-06-18T09:04:13Z</time>
      </trkpt>
      <trkpt lat="45.97948" lon="6.43525">
        <ele>1794.2</ele>
        <time>2019-06-18T09:04:23Z</time>
      </trkpt>
      <trkpt lat="45.97945" lon="6.43521">
        <ele>1795.7</ele>
        <time>2019-06-18T09:04:32Z</time>
      </trkpt>
      <trkpt lat="45.97942" lon="6.43515">
        <ele>1797.2</ele>
        <time>2019-06-18T09:04:44Z</time>
      </trkpt>
      <trkpt lat="45.9794" lon="6.43509">
        <ele>1798.2</ele>
        <time>2019-06-18T09:04:53Z</time>
      </trkpt>
      <trkpt lat="45.97936" lon="6.43504">
        <ele>1799.3</ele>
        <time>2019-06-18T09:05:02Z</time>
      </trkpt>
      <trkpt lat="45.97933" lon="6.43498">
        <ele>1800.6</ele>
        <time>2019-06-18T09:05:09Z</time>
      </trkpt>
      <trkpt lat="45.97929" lon="6.43494">
        <ele>1801.9</ele>
        <time>2019-06-18T09:05:18Z</time>
      </trkpt>
      <trkpt lat="45.97927" lon="6.43488">
        <ele>1803</ele>
        <time>2019-06-18T09:05:27Z</time>
      </trkpt>
      <trkpt lat="45.97926" lon="6.43482">
        <ele>1804.4</ele>
        <time>2019-06-18T09:05:40Z</time>
      </trkpt>
      <trkpt lat="45.97923" lon="6.43476">
        <ele>1805.2</ele>
        <time>2019-06-18T09:05:49Z</time>
      </trkpt>
      <trkpt lat="45.97921" lon="6.4347">
        <ele>1806.3</ele>
        <time>2019-06-18T09:06:00Z</time>
      </trkpt>
      <trkpt lat="45.97919" lon="6.43464">
        <ele>1807.3</ele>
        <time>2019-06-18T09:06:09Z</time>
      </trkpt>
      <trkpt lat="45.97917" lon="6.43458">
        <ele>1808.1</ele>
        <time>2019-06-18T09:06:17Z</time>
      </trkpt>
      <trkpt lat="45.97914" lon="6.43451">
        <ele>1809.4</ele>
        <time>2019-06-18T09:06:27Z</time>
      </trkpt>
      <trkpt lat="45.97912" lon="6.43445">
        <ele>1810.3</ele>
        <time>2019-06-18T09:06:34Z</time>
      </trkpt>
      <trkpt lat="45.97909" lon="6.43439">
        <ele>1811.7</ele>
        <time>2019-06-18T09:06:43Z</time>
      </trkpt>
      <trkpt lat="45.97908" lon="6.43432">
        <ele>1812.8</ele>
        <time>2019-06-18T09:06:51Z</time>
      </trkpt>
      <trkpt lat="45.97905" lon="6.43427">
        <ele>1813.3</ele>
        <time>2019-06-18T09:06:58Z</time>
      </trkpt>
      <trkpt lat="45.97903" lon="6.4342">
        <ele>1813.7</ele>
        <time>2019-06-18T09:07:06Z</time>
      </trkpt>
      <trkpt lat="45.97903" lon="6.43413">
        <ele>1814</ele>
        <time>2019-06-18T09:07:14Z</time>
      </trkpt>
      <trkpt lat="45.97903" lon="6.43406">
        <ele>1814.2</ele>
        <time>2019-06-18T09:07:20Z</time>
      </trkpt>
      <trkpt lat="45.97902" lon="6.43399">
        <ele>1815.1</ele>
        <time>2019-06-18T09:07:28Z</time>
      </trkpt>
      <trkpt lat="45.979" lon="6.43394">
        <ele>1816</ele>
        <time>2019-06-18T09:07:35Z</time>
      </trkpt>
      <trkpt lat="45.97899" lon="6.43387">
        <ele>1817.3</ele>
        <time>2019-06-18T09:07:44Z</time>
      </trkpt>
      <trkpt lat="45.97899" lon="6.43381">
        <ele>1818.7</ele>
        <time>2019-06-18T09:07:54Z</time>
      </trkpt>
      <trkpt lat="45.97899" lon="6.43374">
        <ele>1820.1</ele>
        <time>2019-06-18T09:08:07Z</time>
      </trkpt>
      <trkpt lat="45.97898" lon="6.43367">
        <ele>1820.8</ele>
        <time>2019-06-18T09:08:16Z</time>
      </trkpt>
      <trkpt lat="45.97898" lon="6.4336">
        <ele>1822.1</ele>
        <time>2019-06-18T09:08:25Z</time>
      </trkpt>
      <trkpt lat="45.97895" lon="6.43355">
        <ele>1824.8</ele>
        <time>2019-06-18T09:08:38Z</time>
      </trkpt>
      <trkpt lat="45.97893" lon="6.43348">
        <ele>1825.6</ele>
        <time>2019-06-18T09:08:43Z</time>
      </trkpt>
      <trkpt lat="45.9789" lon="6.43342">
        <ele>1826.5</ele>
        <time>2019-06-18T09:08:49Z</time>
      </trkpt>
      <trkpt lat="45.97889" lon="6.43336">
        <ele>1827.6</ele>
        <time>2019-06-18T09:08:57Z</time>
      </trkpt>
      <trkpt lat="45.97888" lon="6.43329">
        <ele>1827.3</ele>
        <time>2019-06-18T09:09:05Z</time>
      </trkpt>
      <trkpt lat="45.97885" lon="6.43324">
        <ele>1825.8</ele>
        <time>2019-06-18T09:09:14Z</time>
      </trkpt>
      <trkpt lat="45.97885" lon="6.43313">
        <ele>1832.5</ele>
        <time>2019-06-18T09:15:01Z</time>
      </trkpt>
      <trkpt lat="45.97884" lon="6.43305">
        <ele>1832.3</ele>
        <time>2019-06-18T09:15:20Z</time>
      </trkpt>
      <trkpt lat="45.97883" lon="6.43298">
        <ele>1831.2</ele>
        <time>2019-06-18T09:15:29Z</time>
      </trkpt>
      <trkpt lat="45.97883" lon="6.43291">
        <ele>1831</ele>
        <time>2019-06-18T09:15:34Z</time>
      </trkpt>
      <trkpt lat="45.97882" lon="6.4328">
        <ele>1833</ele>
        <time>2019-06-18T09:16:08Z</time>
      </trkpt>
      <trkpt lat="45.97881" lon="6.43274">
        <ele>1833.9</ele>
        <time>2019-06-18T09:16:12Z</time>
      </trkpt>
      <trkpt lat="45.9788" lon="6.43267">
        <ele>1835</ele>
        <time>2019-06-18T09:16:16Z</time>
      </trkpt>
      <trkpt lat="45.97878" lon="6.43261">
        <ele>1836.8</ele>
        <time>2019-06-18T09:16:22Z</time>
      </trkpt>
      <trkpt lat="45.97876" lon="6.43255">
        <ele>1839</ele>
        <time>2019-06-18T09:16:34Z</time>
      </trkpt>
      <trkpt lat="45.97873" lon="6.43249">
        <ele>1840.2</ele>
        <time>2019-06-18T09:16:42Z</time>
      </trkpt>
      <trkpt lat="45.9787" lon="6.43237">
        <ele>1843</ele>
        <time>2019-06-18T09:17:07Z</time>
      </trkpt>
      <trkpt lat="45.97868" lon="6.43231">
        <ele>1844.1</ele>
        <time>2019-06-18T09:17:13Z</time>
      </trkpt>
      <trkpt lat="45.97865" lon="6.43225">
        <ele>1845.7</ele>
        <time>2019-06-18T09:17:20Z</time>
      </trkpt>
      <trkpt lat="45.97862" lon="6.43219">
        <ele>1847.3</ele>
        <time>2019-06-18T09:17:27Z</time>
      </trkpt>
      <trkpt lat="45.97858" lon="6.43215">
        <ele>1848.7</ele>
        <time>2019-06-18T09:17:34Z</time>
      </trkpt>
      <trkpt lat="45.97854" lon="6.43212">
        <ele>1849.8</ele>
        <time>2019-06-18T09:17:43Z</time>
      </trkpt>
      <trkpt lat="45.9785" lon="6.43207">
        <ele>1851.7</ele>
        <time>2019-06-18T09:18:04Z</time>
      </trkpt>
      <trkpt lat="45.97846" lon="6.43205">
        <ele>1853.5</ele>
        <time>2019-06-18T09:18:17Z</time>
      </trkpt>
      <trkpt lat="45.97841" lon="6.43202">
        <ele>1855.3</ele>
        <time>2019-06-18T09:18:26Z</time>
      </trkpt>
      <trkpt lat="45.97837" lon="6.43199">
        <ele>1856.8</ele>
        <time>2019-06-18T09:18:34Z</time>
      </trkpt>
      <trkpt lat="45.97838" lon="6.43192">
        <ele>1858.8</ele>
        <time>2019-06-18T09:18:44Z</time>
      </trkpt>
      <trkpt lat="45.97841" lon="6.43187">
        <ele>1860.3</ele>
        <time>2019-06-18T09:18:51Z</time>
      </trkpt>
      <trkpt lat="45.97845" lon="6.43185">
        <ele>1862.2</ele>
        <time>2019-06-18T09:19:01Z</time>
      </trkpt>
      <trkpt lat="45.97847" lon="6.43179">
        <ele>1863.8</ele>
        <time>2019-06-18T09:19:15Z</time>
      </trkpt>
      <trkpt lat="45.97846" lon="6.43172">
        <ele>1866.1</ele>
        <time>2019-06-18T09:19:30Z</time>
      </trkpt>
      <trkpt lat="45.97842" lon="6.4317">
        <ele>1867.6</ele>
        <time>2019-06-18T09:19:43Z</time>
      </trkpt>
      <trkpt lat="45.97837" lon="6.43168">
        <ele>1870.5</ele>
        <time>2019-06-18T09:20:01Z</time>
      </trkpt>
      <trkpt lat="45.97832" lon="6.43166">
        <ele>1872.1</ele>
        <time>2019-06-18T09:20:10Z</time>
      </trkpt>
      <trkpt lat="45.97829" lon="6.43162">
        <ele>1873.1</ele>
        <time>2019-06-18T09:20:18Z</time>
      </trkpt>
      <trkpt lat="45.97828" lon="6.43156">
        <ele>1873.4</ele>
        <time>2019-06-18T09:20:26Z</time>
      </trkpt>
      <trkpt lat="45.97826" lon="6.43149">
        <ele>1873.3</ele>
        <time>2019-06-18T09:20:39Z</time>
      </trkpt>
      <trkpt lat="45.97823" lon="6.43144">
        <ele>1873.3</ele>
        <time>2019-06-18T09:20:48Z</time>
      </trkpt>
      <trkpt lat="45.97824" lon="6.43151">
        <ele>1874.1</ele>
        <time>2019-06-18T09:22:55Z</time>
      </trkpt>
      <trkpt lat="45.97823" lon="6.43144">
        <ele>1873.8</ele>
        <time>2019-06-18T09:23:12Z</time>
      </trkpt>
      <trkpt lat="45.97819" lon="6.43143">
        <ele>1873.9</ele>
        <time>2019-06-18T09:24:48Z</time>
      </trkpt>
      <trkpt lat="45.97817" lon="6.43149">
        <ele>1875.8</ele>
        <time>2019-06-18T09:25:13Z</time>
      </trkpt>
      <trkpt lat="45.97821" lon="6.43145">
        <ele>1875.8</ele>
        <time>2019-06-18T09:25:34Z</time>
      </trkpt>
      <trkpt lat="45.97816" lon="6.43148">
        <ele>1875.3</ele>
        <time>2019-06-18T09:26:02Z</time>
      </trkpt>
      <trkpt lat="45.97809" lon="6.4315">
        <ele>1874.9</ele>
        <time>2019-06-18T09:26:47Z</time>
      </trkpt>
      <trkpt lat="45.97804" lon="6.43148">
        <ele>1874.4</ele>
        <time>2019-06-18T09:26:55Z</time>
      </trkpt>
      <trkpt lat="45.97799" lon="6.43147">
        <ele>1874.1</ele>
        <time>2019-06-18T09:27:01Z</time>
      </trkpt>
      <trkpt lat="45.97794" lon="6.43146">
        <ele>1873.9</ele>
        <time>2019-06-18T09:27:06Z</time>
      </trkpt>
      <trkpt lat="45.97789" lon="6.43145">
        <ele>1873.7</ele>
        <time>2019-06-18T09:27:12Z</time>
      </trkpt>
      <trkpt lat="45.97784" lon="6.43144">
        <ele>1873.7</ele>
        <time>2019-06-18T09:27:17Z</time>
      </trkpt>
      <trkpt lat="45.97779" lon="6.43145">
        <ele>1874</ele>
        <time>2019-06-18T09:27:28Z</time>
      </trkpt>
      <trkpt lat="45.97774" lon="6.43145">
        <ele>1874.4</ele>
        <time>2019-06-18T09:27:36Z</time>
      </trkpt>
      <trkpt lat="45.97769" lon="6.43145">
        <ele>1875.5</ele>
        <time>2019-06-18T09:27:52Z</time>
      </trkpt>
      <trkpt lat="45.97765" lon="6.43142">
        <ele>1876</ele>
        <time>2019-06-18T09:28:00Z</time>
      </trkpt>
      <trkpt lat="45.97761" lon="6.43142">
        <ele>1876.5</ele>
        <time>2019-06-18T09:28:15Z</time>
      </trkpt>
      <trkpt lat="45.97757" lon="6.43138">
        <ele>1876.9</ele>
        <time>2019-06-18T09:28:31Z</time>
      </trkpt>
      <trkpt lat="45.97752" lon="6.43135">
        <ele>1877.1</ele>
        <time>2019-06-18T09:28:39Z</time>
      </trkpt>
      <trkpt lat="45.97747" lon="6.43134">
        <ele>1876.9</ele>
        <time>2019-06-18T09:28:47Z</time>
      </trkpt>
      <trkpt lat="45.97743" lon="6.43132">
        <ele>1876.6</ele>
        <time>2019-06-18T09:28:55Z</time>
      </trkpt>
      <trkpt lat="45.97738" lon="6.4313">
        <ele>1876.6</ele>
        <time>2019-06-18T09:29:01Z</time>
      </trkpt>
      <trkpt lat="45.97733" lon="6.43131">
        <ele>1876.7</ele>
        <time>2019-06-18T09:29:09Z</time>
      </trkpt>
      <trkpt lat="45.97728" lon="6.43131">
        <ele>1876.8</ele>
        <time>2019-06-18T09:29:20Z</time>
      </trkpt>
      <trkpt lat="45.97723" lon="6.43131">
        <ele>1877</ele>
        <time>2019-06-18T09:29:34Z</time>
      </trkpt>
      <trkpt lat="45.97719" lon="6.43133">
        <ele>1877.6</ele>
        <time>2019-06-18T09:29:43Z</time>
      </trkpt>
      <trkpt lat="45.97715" lon="6.4313">
        <ele>1877.1</ele>
        <time>2019-06-18T09:29:54Z</time>
      </trkpt>
      <trkpt lat="45.97712" lon="6.43124">
        <ele>1876.9</ele>
        <time>2019-06-18T09:30:02Z</time>
      </trkpt>
      <trkpt lat="45.97709" lon="6.43119">
        <ele>1876.9</ele>
        <time>2019-06-18T09:30:14Z</time>
      </trkpt>
      <trkpt lat="45.97706" lon="6.43114">
        <ele>1877.9</ele>
        <time>2019-06-18T09:30:26Z</time>
      </trkpt>
      <trkpt lat="45.97706" lon="6.43107">
        <ele>1878.4</ele>
        <time>2019-06-18T09:30:50Z</time>
      </trkpt>
      <trkpt lat="45.97701" lon="6.43105">
        <ele>1877.1</ele>
        <time>2019-06-18T09:31:23Z</time>
      </trkpt>
      <trkpt lat="45.97697" lon="6.43105">
        <ele>1876.6</ele>
        <time>2019-06-18T09:31:28Z</time>
      </trkpt>
      <trkpt lat="45.97692" lon="6.43104">
        <ele>1875.9</ele>
        <time>2019-06-18T09:31:36Z</time>
      </trkpt>
      <trkpt lat="45.97688" lon="6.43101">
        <ele>1875.5</ele>
        <time>2019-06-18T09:31:41Z</time>
      </trkpt>
      <trkpt lat="45.97683" lon="6.431">
        <ele>1875.3</ele>
        <time>2019-06-18T09:31:46Z</time>
      </trkpt>
      <trkpt lat="45.97679" lon="6.43098">
        <ele>1875</ele>
        <time>2019-06-18T09:31:55Z</time>
      </trkpt>
      <trkpt lat="45.97675" lon="6.43093">
        <ele>1874.1</ele>
        <time>2019-06-18T09:32:04Z</time>
      </trkpt>
      <trkpt lat="45.97673" lon="6.43086">
        <ele>1872.7</ele>
        <time>2019-06-18T09:32:19Z</time>
      </trkpt>
      <trkpt lat="45.97673" lon="6.4308">
        <ele>1872.3</ele>
        <time>2019-06-18T09:32:26Z</time>
      </trkpt>
      <trkpt lat="45.97671" lon="6.43073">
        <ele>1871.6</ele>
        <time>2019-06-18T09:32:36Z</time>
      </trkpt>
      <trkpt lat="45.97671" lon="6.43066">
        <ele>1871.4</ele>
        <time>2019-06-18T09:32:42Z</time>
      </trkpt>
      <trkpt lat="45.97669" lon="6.4306">
        <ele>1871.7</ele>
        <time>2019-06-18T09:32:50Z</time>
      </trkpt>
      <trkpt lat="45.97667" lon="6.43054">
        <ele>1873.6</ele>
        <time>2019-06-18T09:33:06Z</time>
      </trkpt>
      <trkpt lat="45.97664" lon="6.43048">
        <ele>1875.1</ele>
        <time>2019-06-18T09:33:16Z</time>
      </trkpt>
      <trkpt lat="45.97664" lon="6.43042">
        <ele>1876.5</ele>
        <time>2019-06-18T09:33:25Z</time>
      </trkpt>
      <trkpt lat="45.97665" lon="6.43035">
        <ele>1879.4</ele>
        <time>2019-06-18T09:33:49Z</time>
      </trkpt>
      <trkpt lat="45.97665" lon="6.43028">
        <ele>1880.4</ele>
        <time>2019-06-18T09:33:59Z</time>
      </trkpt>
      <trkpt lat="45.97666" lon="6.43022">
        <ele>1881.5</ele>
        <time>2019-06-18T09:34:09Z</time>
      </trkpt>
      <trkpt lat="45.97668" lon="6.43016">
        <ele>1882.7</ele>
        <time>2019-06-18T09:34:17Z</time>
      </trkpt>
      <trkpt lat="45.9767" lon="6.43009">
        <ele>1883.7</ele>
        <time>2019-06-18T09:34:25Z</time>
      </trkpt>
      <trkpt lat="45.97671" lon="6.43003">
        <ele>1885.9</ele>
        <time>2019-06-18T09:34:45Z</time>
      </trkpt>
      <trkpt lat="45.97673" lon="6.42997">
        <ele>1889.9</ele>
        <time>2019-06-18T09:35:26Z</time>
      </trkpt>
      <trkpt lat="45.97674" lon="6.4299">
        <ele>1891.3</ele>
        <time>2019-06-18T09:35:54Z</time>
      </trkpt>
      <trkpt lat="45.9767" lon="6.42986">
        <ele>1891.2</ele>
        <time>2019-06-18T09:36:09Z</time>
      </trkpt>
      <trkpt lat="45.97665" lon="6.42989">
        <ele>1891.2</ele>
        <time>2019-06-18T09:36:16Z</time>
      </trkpt>
      <trkpt lat="45.97661" lon="6.42986">
        <ele>1892.2</ele>
        <time>2019-06-18T09:36:33Z</time>
      </trkpt>
      <trkpt lat="45.9766" lon="6.4298">
        <ele>1892.9</ele>
        <time>2019-06-18T09:36:45Z</time>
      </trkpt>
      <trkpt lat="45.97659" lon="6.42972">
        <ele>1893.4</ele>
        <time>2019-06-18T09:36:59Z</time>
      </trkpt>
      <trkpt lat="45.97656" lon="6.42968">
        <ele>1894.2</ele>
        <time>2019-06-18T09:37:08Z</time>
      </trkpt>
      <trkpt lat="45.97652" lon="6.42964">
        <ele>1896.7</ele>
        <time>2019-06-18T09:37:23Z</time>
      </trkpt>
      <trkpt lat="45.97651" lon="6.42957">
        <ele>1898.6</ele>
        <time>2019-06-18T09:37:36Z</time>
      </trkpt>
      <trkpt lat="45.97649" lon="6.42951">
        <ele>1899.7</ele>
        <time>2019-06-18T09:37:50Z</time>
      </trkpt>
      <trkpt lat="45.97645" lon="6.42954">
        <ele>1902</ele>
        <time>2019-06-18T09:38:11Z</time>
      </trkpt>
      <trkpt lat="45.97641" lon="6.42951">
        <ele>1905.6</ele>
        <time>2019-06-18T09:38:24Z</time>
      </trkpt>
      <trkpt lat="45.97638" lon="6.42945">
        <ele>1907.9</ele>
        <time>2019-06-18T09:38:37Z</time>
      </trkpt>
      <trkpt lat="45.97636" lon="6.42939">
        <ele>1908.6</ele>
        <time>2019-06-18T09:38:47Z</time>
      </trkpt>
      <trkpt lat="45.97635" lon="6.42932">
        <ele>1909.3</ele>
        <time>2019-06-18T09:38:59Z</time>
      </trkpt>
      <trkpt lat="45.97634" lon="6.42926">
        <ele>1909.5</ele>
        <time>2019-06-18T09:39:05Z</time>
      </trkpt>
      <trkpt lat="45.97634" lon="6.42919">
        <ele>1909.9</ele>
        <time>2019-06-18T09:39:15Z</time>
      </trkpt>
      <trkpt lat="45.9763" lon="6.42915">
        <ele>1910.2</ele>
        <time>2019-06-18T09:39:26Z</time>
      </trkpt>
      <trkpt lat="45.97629" lon="6.42909">
        <ele>1910.6</ele>
        <time>2019-06-18T09:39:43Z</time>
      </trkpt>
      <trkpt lat="45.97625" lon="6.42905">
        <ele>1911.5</ele>
        <time>2019-06-18T09:39:53Z</time>
      </trkpt>
      <trkpt lat="45.97622" lon="6.429">
        <ele>1912.3</ele>
        <time>2019-06-18T09:40:00Z</time>
      </trkpt>
      <trkpt lat="45.97617" lon="6.42898">
        <ele>1913</ele>
        <time>2019-06-18T09:40:09Z</time>
      </trkpt>
      <trkpt lat="45.97613" lon="6.42895">
        <ele>1913.2</ele>
        <time>2019-06-18T09:40:19Z</time>
      </trkpt>
      <trkpt lat="45.97611" lon="6.42888">
        <ele>1912.3</ele>
        <time>2019-06-18T09:41:02Z</time>
      </trkpt>
      <trkpt lat="45.97608" lon="6.42883">
        <ele>1912.5</ele>
        <time>2019-06-18T09:41:13Z</time>
      </trkpt>
      <trkpt lat="45.97603" lon="6.4288">
        <ele>1912.8</ele>
        <time>2019-06-18T09:41:22Z</time>
      </trkpt>
      <trkpt lat="45.97599" lon="6.42876">
        <ele>1912.8</ele>
        <time>2019-06-18T09:41:30Z</time>
      </trkpt>
      <trkpt lat="45.97594" lon="6.42874">
        <ele>1913.3</ele>
        <time>2019-06-18T09:41:39Z</time>
      </trkpt>
      <trkpt lat="45.97589" lon="6.42875">
        <ele>1914</ele>
        <time>2019-06-18T09:41:48Z</time>
      </trkpt>
      <trkpt lat="45.97585" lon="6.42873">
        <ele>1914.2</ele>
        <time>2019-06-18T09:41:55Z</time>
      </trkpt>
      <trkpt lat="45.97582" lon="6.42867">
        <ele>1913.8</ele>
        <time>2019-06-18T09:42:03Z</time>
      </trkpt>
      <trkpt lat="45.97579" lon="6.42863">
        <ele>1913.7</ele>
        <time>2019-06-18T09:42:14Z</time>
      </trkpt>
      <trkpt lat="45.97574" lon="6.42862">
        <ele>1913.7</ele>
        <time>2019-06-18T09:42:21Z</time>
      </trkpt>
      <trkpt lat="45.97569" lon="6.42865">
        <ele>1912.8</ele>
        <time>2019-06-18T09:42:31Z</time>
      </trkpt>
      <trkpt lat="45.97565" lon="6.42869">
        <ele>1912.2</ele>
        <time>2019-06-18T09:42:53Z</time>
      </trkpt>
      <trkpt lat="45.97562" lon="6.42873">
        <ele>1913.1</ele>
        <time>2019-06-18T09:43:00Z</time>
      </trkpt>
      <trkpt lat="45.97552" lon="6.42881">
        <ele>1914.7</ele>
        <time>2019-06-18T09:43:17Z</time>
      </trkpt>
      <trkpt lat="45.9754" lon="6.42887">
        <ele>1914.2</ele>
        <time>2019-06-18T09:43:32Z</time>
      </trkpt>
      <trkpt lat="45.97525" lon="6.42884">
        <ele>1912.5</ele>
        <time>2019-06-18T09:43:43Z</time>
      </trkpt>
      <trkpt lat="45.97521" lon="6.42879">
        <ele>1912</ele>
        <time>2019-06-18T09:43:58Z</time>
      </trkpt>
      <trkpt lat="45.97512" lon="6.42876">
        <ele>1912.9</ele>
        <time>2019-06-18T09:44:24Z</time>
      </trkpt>
      <trkpt lat="45.97507" lon="6.42873">
        <ele>1913.3</ele>
        <time>2019-06-18T09:44:38Z</time>
      </trkpt>
      <trkpt lat="45.97504" lon="6.42878">
        <ele>1914.1</ele>
        <time>2019-06-18T09:44:54Z</time>
      </trkpt>
      <trkpt lat="45.975" lon="6.42881">
        <ele>1914.8</ele>
        <time>2019-06-18T09:45:11Z</time>
      </trkpt>
      <trkpt lat="45.97494" lon="6.42881">
        <ele>1914.6</ele>
        <time>2019-06-18T09:45:24Z</time>
      </trkpt>
      <trkpt lat="45.97487" lon="6.42883">
        <ele>1914.4</ele>
        <time>2019-06-18T09:45:31Z</time>
      </trkpt>
      <trkpt lat="45.97467" lon="6.42888">
        <ele>1916.1</ele>
        <time>2019-06-18T09:46:23Z</time>
      </trkpt>
      <trkpt lat="45.97463" lon="6.42884">
        <ele>1916.3</ele>
        <time>2019-06-18T09:46:39Z</time>
      </trkpt>
      <trkpt lat="45.97463" lon="6.42877">
        <ele>1916.2</ele>
        <time>2019-06-18T09:46:47Z</time>
      </trkpt>
      <trkpt lat="45.97467" lon="6.42872">
        <ele>1916.5</ele>
        <time>2019-06-18T09:47:04Z</time>
      </trkpt>
      <trkpt lat="45.97464" lon="6.42867">
        <ele>1917.6</ele>
        <time>2019-06-18T09:47:15Z</time>
      </trkpt>
      <trkpt lat="45.97467" lon="6.42854">
        <ele>1922.1</ele>
        <time>2019-06-18T09:47:45Z</time>
      </trkpt>
      <trkpt lat="45.97467" lon="6.42847">
        <ele>1922.1</ele>
        <time>2019-06-18T09:47:50Z</time>
      </trkpt>
      <trkpt lat="45.97469" lon="6.42841">
        <ele>1922.7</ele>
        <time>2019-06-18T09:47:58Z</time>
      </trkpt>
      <trkpt lat="45.97466" lon="6.42832">
        <ele>1924.4</ele>
        <time>2019-06-18T09:48:23Z</time>
      </trkpt>
      <trkpt lat="45.97463" lon="6.42819">
        <ele>1929.8</ele>
        <time>2019-06-18T09:49:27Z</time>
      </trkpt>
      <trkpt lat="45.97458" lon="6.42818">
        <ele>1930.4</ele>
        <time>2019-06-18T09:49:34Z</time>
      </trkpt>
      <trkpt lat="45.97454" lon="6.428">
        <ele>1933.2</ele>
        <time>2019-06-18T09:50:38Z</time>
      </trkpt>
      <trkpt lat="45.9746" lon="6.42785">
        <ele>1937.3</ele>
        <time>2019-06-18T09:50:58Z</time>
      </trkpt>
      <trkpt lat="45.97462" lon="6.4278">
        <ele>1938.5</ele>
        <time>2019-06-18T09:51:07Z</time>
      </trkpt>
      <trkpt lat="45.97464" lon="6.42773">
        <ele>1939.8</ele>
        <time>2019-06-18T09:51:16Z</time>
      </trkpt>
      <trkpt lat="45.97468" lon="6.42761">
        <ele>1945.5</ele>
        <time>2019-06-18T09:53:14Z</time>
      </trkpt>
      <trkpt lat="45.97467" lon="6.42754">
        <ele>1948.3</ele>
        <time>2019-06-18T09:53:35Z</time>
      </trkpt>
      <trkpt lat="45.97465" lon="6.42748">
        <ele>1950</ele>
        <time>2019-06-18T09:53:50Z</time>
      </trkpt>
      <trkpt lat="45.97461" lon="6.42744">
        <ele>1950.7</ele>
        <time>2019-06-18T09:54:00Z</time>
      </trkpt>
      <trkpt lat="45.97454" lon="6.42735">
        <ele>1955.9</ele>
        <time>2019-06-18T09:54:48Z</time>
      </trkpt>
      <trkpt lat="45.97446" lon="6.42728">
        <ele>1960</ele>
        <time>2019-06-18T09:55:57Z</time>
      </trkpt>
      <trkpt lat="45.97442" lon="6.42726">
        <ele>1960.6</ele>
        <time>2019-06-18T09:56:05Z</time>
      </trkpt>
      <trkpt lat="45.97437" lon="6.42723">
        <ele>1962.4</ele>
        <time>2019-06-18T09:56:16Z</time>
      </trkpt>
      <trkpt lat="45.97433" lon="6.4272">
        <ele>1963.6</ele>
        <time>2019-06-18T09:56:24Z</time>
      </trkpt>
      <trkpt lat="45.97428" lon="6.42718">
        <ele>1965.4</ele>
        <time>2019-06-18T09:56:40Z</time>
      </trkpt>
      <trkpt lat="45.97424" lon="6.42715">
        <ele>1966</ele>
        <time>2019-06-18T09:56:49Z</time>
      </trkpt>
      <trkpt lat="45.97419" lon="6.4271">
        <ele>1967.6</ele>
        <time>2019-06-18T09:57:12Z</time>
      </trkpt>
      <trkpt lat="45.97415" lon="6.42705">
        <ele>1968.9</ele>
        <time>2019-06-18T09:57:22Z</time>
      </trkpt>
      <trkpt lat="45.97411" lon="6.42704">
        <ele>1972.2</ele>
        <time>2019-06-18T09:57:54Z</time>
      </trkpt>
      <trkpt lat="45.97406" lon="6.42704">
        <ele>1972.9</ele>
        <time>2019-06-18T09:57:59Z</time>
      </trkpt>
      <trkpt lat="45.97401" lon="6.42704">
        <ele>1973.3</ele>
        <time>2019-06-18T09:58:03Z</time>
      </trkpt>
      <trkpt lat="45.97396" lon="6.42703">
        <ele>1974.6</ele>
        <time>2019-06-18T09:58:15Z</time>
      </trkpt>
      <trkpt lat="45.97391" lon="6.42704">
        <ele>1975.9</ele>
        <time>2019-06-18T09:58:33Z</time>
      </trkpt>
      <trkpt lat="45.97391" lon="6.42697">
        <ele>1979.9</ele>
        <time>2019-06-18T10:00:35Z</time>
      </trkpt>
      <trkpt lat="45.97395" lon="6.42694">
        <ele>1980.2</ele>
        <time>2019-06-18T10:00:56Z</time>
      </trkpt>
      <trkpt lat="45.97396" lon="6.42701">
        <ele>1980.8</ele>
        <time>2019-06-18T10:01:42Z</time>
      </trkpt>
      <trkpt lat="45.97399" lon="6.42696">
        <ele>1981.1</ele>
        <time>2019-06-18T10:02:19Z</time>
      </trkpt>
      <trkpt lat="45.97399" lon="6.42689">
        <ele>1981.7</ele>
        <time>2019-06-18T10:02:36Z</time>
      </trkpt>
      <trkpt lat="45.97401" lon="6.42684">
        <ele>1982.6</ele>
        <time>2019-06-18T10:02:51Z</time>
      </trkpt>
      <trkpt lat="45.97397" lon="6.42681">
        <ele>1984.4</ele>
        <time>2019-06-18T10:04:04Z</time>
      </trkpt>
      <trkpt lat="45.97402" lon="6.42681">
        <ele>1989.3</ele>
        <time>2019-06-18T10:07:50Z</time>
      </trkpt>
      <trkpt lat="45.97397" lon="6.42683">
        <ele>1994.6</ele>
        <time>2019-06-18T10:31:02Z</time>
      </trkpt>
      <trkpt lat="45.97402" lon="6.42684">
        <ele>1999</ele>
        <time>2019-06-18T10:40:14Z</time>
      </trkpt>
      <trkpt lat="45.97398" lon="6.42682">
        <ele>2001.7</ele>
        <time>2019-06-18T10:45:21Z</time>
      </trkpt>
      <trkpt lat="45.97397" lon="6.42683">
        <ele>1998.4</ele>
        <time>2019-06-18T10:48:49Z</time>
      </trkpt>
      <trkpt lat="45.97397" lon="6.42689">
        <ele>1993.4</ele>
        <time>2019-06-18T11:09:00Z</time>
      </trkpt>
    </trkseg>
  </trk>
</gpx>